ftp/pub/mcmurdo/building71/2007/June/070609.txt

Download

6/9/07
Time         Wind Dir   Wind Spd  Wind Gust     Hum In    Temp In       Temp  Raw Barom Wind Chill
                    °        kts        kts          %         °C         °C         mb         °C
0:00               99         21         21         23       19.7      -13.4     975.93      -25.2
0:01               98         17         21         23       19.8      -13.8     976.00      -24.5
0:02               97         11         19         23       19.8      -14.2     976.13      -23.3
0:03               87         12         19         24       19.8      -13.4     976.03      -22.6
0:04               87         13         16         24       19.8      -12.8     976.07      -22.2
0:05               94         18         18         24       19.7      -12.6     976.00      -23.4
0:06               93         14         19         24       19.7      -13.1     976.03      -22.8
0:07               91         12         15         24       19.7      -12.9     976.10      -22.1
0:08               91         16         16         24       19.7      -13.0     975.96      -23.2
0:09               92         12         16         24       19.7      -12.8     976.03      -21.9
0:10               92         14         15         24       19.7      -12.9     976.03      -22.6
0:11               94         18         19         25       19.7      -12.8     976.10      -23.7
0:12               91         10         20         25       19.7      -13.1     976.10      -21.5
0:13               89         17         17         25       19.7      -13.4     976.13      -24.3
0:14               87         15         22         25       19.7      -13.3     976.10      -23.4
0:15               97         18         21         25       19.7      -13.1     975.93      -24.0
0:16               76         13         19         25       19.7      -13.5     976.03      -23.1
0:17               87         14         20         25       19.7      -13.1     976.00      -22.8
0:18               92         14         14         25       19.7      -13.1     976.00      -22.8
0:19               95         15         16         25       19.7      -13.1     976.10      -23.1
0:20               93         17         21         25       19.7      -13.3     976.00      -23.9
0:21               91         11         17         25       19.7      -12.9     975.93      -21.7
0:22               95         18         20         25       19.7      -12.7     976.03      -23.5
0:23               88         10         18         25       19.7      -12.6     976.17      -21.0
0:24               86         14         17         25       19.7      -12.9     976.24      -22.6
0:25               89         14         16         25       19.7      -13.2     976.20      -23.0
0:26               89         12         17         26       19.7      -12.8     976.20      -21.9
0:27               89         12         16         26       19.7      -12.8     976.07      -21.9
0:28               91         16         17         26       19.7      -12.9     976.07      -23.1
0:29               90         11         16         26       19.7      -13.1     976.10      -21.9
0:30               87         18         18         25       19.7      -13.3     975.93      -24.3
0:31               79         14         18         25       19.7      -13.2     976.10      -22.9
0:32               78         15         19         24       19.7      -13.1     976.07      -23.1
0:33               72         13         17         24       19.7      -13.0     976.13      -22.4
0:34               78         12         17         23       19.7      -13.3     976.07      -22.5
0:35               85         17         17         23       19.7      -13.2     976.17      -23.7
0:36               84         13         17         22       19.7      -13.1     976.07      -22.5
0:37               82         14         17         22       19.7      -12.9     976.17      -22.6
0:38               86         15         15         22       19.7      -12.8     976.03      -22.8
0:39               80         11         16         22       19.7      -12.8     976.20      -21.6
0:40               77         13         16         21       19.8      -12.9     976.20      -22.4
0:41               80         14         16         21       19.8      -13.1     975.96      -22.8
0:42               84         12         17         21       19.8      -12.5     975.93      -21.5
0:43               90         15         15         21       19.8      -12.6     975.96      -22.4
0:44               84         11         15         21       19.8      -12.6     976.03      -21.3
0:45               76         14         15         20       19.8      -12.7     976.13      -22.3
0:46               88         13         17         20       19.8      -12.8     975.96      -22.2
0:47               91         15         19         20       19.8      -12.6     975.93      -22.5
0:48               85         11         17         20       19.8      -12.3     976.07      -21.0
0:49               75         12         15         20       19.8      -12.7     976.10      -21.8
0:50               73         16         16         20       19.8      -13.0     976.03      -23.2
0:51               68         12         17         20       19.8      -13.2     976.07      -22.3
0:52               76         15         17         20       19.8      -13.1     976.13      -23.1
0:53               78         14         15         20       19.8      -12.8     976.13      -22.5
0:54               87         10         14         20       19.9      -12.9     976.10      -21.0
0:55               85         10         14         19       19.9      -12.8     976.20      -20.8
0:56               82         13         15         19       19.9      -12.8     976.10      -22.2
0:57               84         11         14         19       19.9      -12.4     976.07      -21.0
0:58               87         12         15         19       19.9      -12.3     976.00      -21.3
0:59               71         13         16         19       19.9      -12.7     976.00      -22.0
1:00               81         12         13         19       19.9      -12.4     976.03      -21.4
1:01               84         10         12         19       19.9      -12.7     975.93      -21.1
1:02               92         14         16         19       19.9      -12.6     976.10      -22.1
1:03               93         14         17         19       19.9      -12.8     976.03      -22.4
1:04              100         17         17         18       19.9      -12.5     976.00      -22.8
1:05               94         10         17         18       19.9      -12.6     976.00      -20.6
1:06               99         17         19         18       20.0      -13.9     975.93      -24.7
1:07              101         14         17         18       20.0      -13.9     975.93      -23.9
1:08               91         13         14         18       20.0      -14.5     976.03      -24.4
1:09               97         17         17         18       20.0      -14.6     975.86      -25.5
1:10               97         15         18         18       20.0      -13.6     975.86      -23.7
1:11               95         12         17         18       20.0      -13.8     975.96      -23.2
1:12               97         18         18         18       20.0      -13.1     975.66      -24.1
1:13               87         10         18         18       20.0      -13.2     975.76      -21.7
1:14               76         15         22         18       20.1      -13.1     975.59      -23.1
1:15               75         15         17         18       20.1      -11.9     975.56      -21.6
1:16               80         16         18         18       20.1      -12.0     975.52      -21.9
1:17               88         10         16         18       20.1      -12.6     975.59      -20.9
1:18               92         14         19         18       20.1      -12.4     975.56      -21.9
1:19               89         10         16         19       20.0      -12.4     975.59      -20.7
1:20               91         11         16         19       20.0      -12.3     975.73      -20.9
1:21               91         11         15         20       20.0      -12.3     975.69      -21.0
1:22               91         11         17         20       20.0      -12.2     975.73      -20.8
1:23               77         11         16         20       20.0      -12.0     975.69      -20.5
1:24               92         10         16         21       20.0      -11.8     975.66      -20.0
1:25               77         11         14         21       20.0      -11.8     975.76      -20.3
1:26               90         13         13         21       19.9      -12.0     975.63      -21.2
1:27               82         14         15         22       19.9      -12.2     975.56      -21.6
1:28               85         10         16         22       19.9      -12.3     975.63      -20.6
1:29               86         11         14         22       19.9      -12.5     975.69      -21.2
1:30               78         14         16         22       19.9      -12.3     975.59      -21.9
1:31               80         12         14         22       19.9      -12.2     975.49      -21.1
1:32               86         14         16         23       19.9      -12.3     975.59      -21.8
1:33               88         13         17         23       19.9      -12.3     975.52      -21.5
1:34               89         15         17         23       19.9      -12.3     975.32      -22.1
1:35               86         11         18         23       19.9      -12.4     975.35      -21.0
1:36               83         13         16         23       19.9      -12.3     975.49      -21.5
1:37               83         12         17         23       19.9      -12.2     975.46      -21.1
1:38               86         12         16         23       19.9      -12.2     975.32      -21.1
1:39               89         11         16         23       19.9      -11.9     975.39      -20.5
1:40               89         11         17         24       19.9      -12.1     975.39      -20.6
1:41               90         10         15         24       19.9      -11.9     975.42      -20.1
1:42               84         12         14         24       19.9      -12.0     975.29      -20.9
1:43               86         11         16         24       19.9      -11.8     975.42      -20.3
1:44               87         12         16         24       19.9      -11.9     975.46      -20.7
1:45               90         10         16         24       19.9      -11.9     975.32      -20.1
1:46               83         12         15         24       19.9      -12.1     975.46      -21.0
1:47               80         11         13         24       19.9      -12.1     975.29      -20.7
1:48               78         13         16         24       19.9      -11.9     975.25      -21.1
1:49               75         14         17         24       19.9      -11.8     975.19      -21.1
1:50               90         12         15         25       19.9      -11.9     975.15      -20.7
1:51               89         11         16         24       19.9      -12.0     975.12      -20.5
1:52               84         12         14         25       19.9      -11.8     975.02      -20.6
1:53               83         13         17         25       19.9      -11.7     975.05      -20.7
1:54               84         12         15         25       19.9      -11.6     975.19      -20.4
1:55               88         13         15         25       19.9      -11.7     974.81      -20.7
1:56               81         14         17         25       19.8      -11.8     974.88      -21.2
1:57               87         12         17         25       19.8      -11.7     974.91      -20.5
1:58               87         13         16         25       19.8      -11.7     974.85      -20.7
1:59               87         15         15         25       19.8      -11.6     974.95      -21.2
2:00               89         13         15         25       19.8      -11.7     974.91      -20.7
2:01               88         12         15         25       19.8      -11.7     974.81      -20.4
2:02               87         12         17         25       19.8      -11.7     975.02      -20.4
2:03               84         16         16         25       19.8      -11.6     974.85      -21.4
2:04               90         12         16         25       19.8      -11.4     974.75      -20.2
2:05               82         11         14         25       19.8      -11.4     974.85      -19.8
2:06               80         13         14         26       19.8      -11.5     974.88      -20.5
2:07               77         15         16         26       19.8      -11.3     974.91      -20.8
2:08               73         15         16         26       19.8      -11.4     974.88      -20.9
2:09               78         13         17         26       19.8      -11.4     974.88      -20.4
2:10               76         14         15         26       19.8      -11.5     974.85      -20.8
2:11               74         15         16         25       19.8      -11.3     974.75      -20.8
2:12               86         12         15         24       19.8      -11.2     974.81      -19.9
2:13               86         12         14         24       19.8      -11.3     974.81      -20.0
2:14               83         11         15         24       19.8      -11.3     974.75      -19.6
2:15               89         10         15         23       19.9      -11.4     974.68      -19.4
2:16               83         11         14         23       19.9      -11.6     974.78      -20.0
2:17               75         13         15         23       19.9      -11.3     974.91      -20.2
2:18               81         13         16         22       19.9      -11.3     974.71      -20.2
2:19               78         11         17         22       19.9      -11.6     974.88      -20.0
2:20               76         16         16         22       19.9      -11.7     974.78      -21.6
2:21               71         16         16         22       19.9      -11.7     974.91      -21.5
2:22               76         16         16         21       19.9      -11.6     974.91      -21.4
2:23               73         13         16         21       19.9      -11.6     974.88      -20.7
2:24               73         15         16         21       19.9      -11.6     974.91      -21.1
2:25               71         13         17         21       19.9      -11.6     974.81      -20.7
2:26               72         10         16         21       19.9      -11.8     974.91      -19.9
2:27               79         13         16         20       19.9      -11.9     974.88      -21.1
2:28               69         17         17         20       20.0      -11.9     974.88      -22.3
2:29               70         14         17         20       20.0      -12.1     974.85      -21.6
2:30               71         15         17         20       20.0      -12.3     974.78      -22.1
2:31               72         16         17         20       20.0      -12.3     974.78      -22.4
2:32               70         16         18         20       20.0      -12.3     974.75      -22.4
2:33               69         16         17         20       20.0      -12.4     974.71      -22.5
2:34               73         12         17         20       20.1      -12.4     974.78      -21.4
2:35               70         16         17         20       20.1      -12.3     974.78      -22.4
2:36               79         12         16         19       20.1      -12.0     974.71      -20.9
2:37               71         16         17         19       20.1      -11.7     974.78      -21.6
2:38               70         17         17         19       20.1      -12.0     974.81      -22.2
2:39               76         14         17         19       20.1      -12.0     974.75      -21.4
2:40               72         17         17         19       20.1      -11.7     974.71      -21.8
2:41               71         16         17         19       20.1      -11.8     974.75      -21.7
2:42               72         13         16         19       20.1      -11.6     974.71      -20.6
2:43               70         14         17         19       20.1      -11.7     974.68      -21.1
2:44               69         14         17         18       20.1      -11.8     974.64      -21.2
2:45               72         14         16         18       20.1      -11.8     974.61      -21.2
2:46               71         15         17         18       20.1      -11.8     974.71      -21.5
2:47               73         13         16         18       20.1      -11.7     974.64      -20.8
2:48               69         12         16         18       20.1      -11.6     974.71      -20.4
2:49               67         10         17         18       20.1      -11.8     974.71      -20.0
2:50               68         14         16         18       20.1      -11.8     974.64      -21.2
2:51               68         15         15         18       20.2      -11.7     974.81      -21.3
2:52               76         10         16         18       20.2      -11.8     974.78      -19.9
2:53               76         13         14         18       20.2      -11.8     974.61      -20.9
2:54               76         11         13         18       20.2      -11.6     974.75      -20.1
2:55               72         15         15         18       20.2      -11.4     974.58      -21.0
2:56               69         14         15         18       20.2      -11.3     974.64      -20.6
2:57               75         13         16         18       20.2      -11.6     974.54      -20.7
2:58               73         10         13         19       20.2      -11.6     974.68      -19.4
2:59               70         16         17         19       20.2      -11.7     974.54      -21.5
3:00               70         13         16         20       20.2      -11.6     974.75      -20.6
3:01               68         12         16         20       20.2      -11.7     974.64      -20.4
3:02               66         14         16         21       20.2      -12.1     974.71      -21.6
3:03               69         14         16         21       20.2      -11.8     974.58      -21.2
3:04               80         10         14         21       20.2      -11.4     974.64      -19.1
3:05               79         10         14         22       20.2      -11.2     974.85      -18.9
3:06               80         10         11         22       20.2      -11.2     974.64      -18.9
3:07               74          8         15         22       20.2      -11.4     974.85      -18.3
3:08               74         10         11         22       20.2      -10.9     974.85      -18.5
3:09               88          6         12         23       20.2      -11.2     974.78      -17.1
3:10               73         10         12         23       20.2      -11.1     974.85      -18.7
3:11               81         10         10         23       20.2      -11.4     974.81      -19.1
3:12               78         10         10         23       20.2      -10.8     974.78      -18.4
3:13               87         10         11         23       20.2      -11.2     974.78      -18.9
3:14               90          7         13         24       20.2      -11.1     974.85      -17.5
3:15               96         10         14         24       20.2      -10.6     974.85      -18.4
3:16               73         10         10         24       20.2      -10.5     974.78      -18.0
3:17               89         10         10         24       20.2      -10.8     974.75      -18.7
3:18               85          7         10         24       20.2      -10.6     974.85      -16.9
3:19               79         10         13         24       20.2      -10.6     974.78      -18.1
3:20               70         12         12         24       20.2      -10.7     974.85      -19.2
3:21               71         10         12         24       20.2      -10.6     974.71      -18.1
3:22               75          8         12         25       20.2      -10.6     974.75      -17.3
3:23               81          9         10         25       20.2      -10.5     974.61      -17.6
3:24               88          9         12         25       20.2      -10.3     974.75      -17.4
3:25               89          8         10         25       20.2      -10.5     974.68      -17.2
3:26               70         10         10         25       20.2      -10.4     974.75      -17.9
3:27               73          8         10         25       20.2      -10.4     974.85      -17.1
3:28               70         13         13         25       20.2      -10.3     974.64      -19.0
3:29               64          5         15         25       20.2      -10.5     974.61      -15.7
3:30               75          8          8         26       20.2      -10.4     974.75      -17.1
3:31               92          8          9         26       20.2      -10.4     974.71      -17.1
3:32               92          6          8         26       20.2      -10.5     974.71      -16.3
3:33               83          5          8         26       20.2      -10.3     974.68      -15.5
3:34              113          5          6         26       20.2      -11.5     974.78      -16.9
3:35              165          2          5         26       20.2      -12.6     974.75      -14.4
3:36              165          1          2         26       20.2      -13.1     974.61      -13.1
3:37              165          0          3         26       20.2      -13.2     974.71      -13.2
3:38              164          2          3         26       20.3      -12.9     974.61      -14.7
3:39              166          0          4         25       20.3      -12.6     974.61      -12.6
3:40              166          3          3         25       20.3      -12.3     974.71      -15.4
3:41              159          4          5         24       20.3      -13.1     974.58      -18.1
3:42              154          3          5         24       20.3      -13.0     974.71      -17.2
3:43              145          3          5         24       20.4      -12.9     974.51      -17.1
3:44               68          9          9         23       20.4      -12.0     974.54      -19.5
3:45               73          7          9         23       20.4      -11.6     974.37      -18.0
3:46               73          7         10         23       20.4      -10.9     974.47      -17.2
3:47               76          6          7         23       20.4      -10.8     974.37      -16.7
3:48               89          4          7         22       20.4      -10.6     974.41      -15.2
3:49               95          2          5         22       20.5      -10.8     974.34      -12.4
3:50               96          3          3         22       20.5      -11.9     974.30      -14.9
3:51               97          1          3         22       20.5      -12.9     974.51      -12.9
3:52               97          3          3         22       20.5      -13.3     974.47      -16.5
3:53               97          1          3         22       20.6      -13.4     974.41      -13.4
3:54               97          3          3         22       20.6      -13.3     974.34      -16.5
3:55              104          3          4         22       20.6      -13.3     974.47      -16.6
3:56              104          0          3         21       20.6      -14.6     974.34      -14.6
3:57              105          3          3         21       20.6      -14.8     974.30      -18.2
3:58              105          2          3         21       20.6      -15.0     974.41      -17.1
3:59              105          1          2         21       20.6      -15.1     974.34      -15.1
4:00              105          2          3         21       20.7      -14.9     973.42      -17.0
4:01              105          0          2         21       20.7      -14.7     973.53      -14.7
4:02              105          0          2         20       20.6      -14.4     973.46      -14.4
4:03              105          0          0         19       20.6      -13.9     973.49      -13.9
4:04              104          0          0         18       20.5      -13.6     973.49      -13.6
4:05              105          0          0         18       20.4      -13.7     973.39      -13.7
4:06              105          0          0         17       20.3      -13.7     973.39      -13.7
4:07              105          0          0         17       20.3      -13.9     973.36      -13.9
4:08              105          1          3         16       20.2      -13.6     973.32      -13.6
4:09              105          1          2         16       20.1      -13.6     973.29      -13.6
4:10              105          0          2         16       20.0      -13.5     974.14      -13.5
4:11              104          0          0         16       19.9      -13.7     974.20      -13.7
4:12              104          0          0         17       19.8      -14.0     974.03      -14.0
4:13              105          0          0         17       19.8      -14.2     974.14      -14.2
4:14              104          0          0         18       19.7      -14.3     974.03      -14.3
4:15              105          0          0         18       19.7      -14.1     974.00      -14.1
4:16              105          2          4         19       19.7      -13.9     974.03      -15.8
4:17              103          4          6         19       19.7      -13.1     973.97      -18.1
4:18              102          1          4         20       19.7      -13.1     973.93      -13.1
4:19              102          2          3         20       19.7      -13.3     973.97      -15.2
4:20              100          5          5         21       19.7      -13.1     974.07      -18.8
4:21               95          6          6         21       19.7      -12.4     974.00      -18.5
4:22               92          5          6         22       19.7      -11.6     973.80      -17.0
4:23               92          3          5         22       19.7      -11.7     973.90      -15.7
4:24               91          2          3         22       19.7      -11.9     974.03      -13.6
4:25               92          1          3         22       19.7      -12.1     974.00      -12.1
4:26               92          2          3         23       19.7      -12.8     974.03      -14.6
4:27               92          2          3         23       19.7      -13.3     974.03      -15.2
4:28              120          4          4         23       19.7      -13.3     973.93      -18.3
4:29              184          2          4         23       19.7      -13.9     973.83      -15.8
4:30              184          2          3         24       19.7      -14.1     974.00      -16.1
4:31              184          0          3         24       19.7      -14.1     973.86      -14.1
4:32              184          2          3         24       19.7      -13.4     973.83      -15.3
4:33              183          1          3         24       19.7      -13.7     973.86      -13.7
4:34              182          4          4         25       19.8      -14.7     973.93      -20.0
4:35              180          3          4         25       19.8      -13.8     973.83      -17.1
4:36              180          3          4         25       19.8      -13.8     973.86      -17.1
4:37              180          1          3         25       19.8      -13.4     973.80      -13.4
4:38              179          0          1         25       19.8      -13.1     973.80      -13.1
4:39              179          3          3         26       19.8      -13.4     973.73      -16.7
4:40              179          0          3         26       19.8      -14.1     973.73      -14.1
4:41              180          0          0         26       19.8      -14.3     973.56      -14.3
4:42              179          0          0         26       19.8      -14.5     973.70      -14.5
4:43              179          0          0         26       19.8      -14.7     973.66      -14.7
4:44              179          0          0         26       19.9      -14.4     973.80      -14.4
4:45              179          1          1         26       19.9      -14.5     973.63      -14.5
4:46              180          4          4         26       19.9      -14.5     973.59      -19.8
4:47              180          3          4         26       19.9      -14.7     973.70      -18.1
4:48              181          0          3         26       19.9      -14.8     973.63      -14.8
4:49              181          0          0         25       19.9      -14.8     973.63      -14.8
4:50              181          0          2         24       20.0      -14.9     973.70      -14.9
4:51              180          2          2         24       20.0      -14.7     973.63      -16.8
4:52              180          1          2         24       20.0      -14.9     973.76      -14.9
4:53              181          0          2         23       20.1      -14.9     973.70      -14.9
4:54              180          0          1         23       20.1      -14.9     973.56      -14.9
4:55              181          0          0         23       20.1      -15.2     973.53      -15.2
4:56              181          0          0         23       20.1      -15.4     973.70      -15.4
4:57              181          0          0         22       20.2      -15.8     973.63      -15.8
4:58              181          0          0         22       20.2      -15.7     973.63      -15.7
4:59              180          0          1         22       20.2      -15.4     973.53      -15.4
5:00              181          2          3         22       20.2      -15.3     973.53      -17.4
5:01              181          1          2         22       20.2      -15.2     973.42      -15.2
5:02              181          0          1         21       20.2      -15.0     973.46      -15.0
5:03              181          0          0         21       20.3      -15.0     973.49      -15.0
5:04              180          0          0         21       20.3      -15.4     973.49      -15.4
5:05              180          0          0         21       20.3      -15.8     973.42      -15.8
5:06              181          0          0         21       20.3      -15.7     973.53      -15.7
5:07              180          0          0         21       20.3      -15.7     973.46      -15.7
5:08              181          0          0         21       20.3      -15.6     973.46      -15.6
5:09              181          0          0         21       20.3      -15.7     973.49      -15.7
5:10              180          2          2         20       20.4      -15.8     973.46      -18.0
5:11              181          3          3         20       20.4      -16.0     973.36      -19.6
5:12              181          1          3         20       20.4      -15.9     973.53      -15.9
5:13              181          3          3         20       20.4      -15.7     973.42      -20.3
5:14              181          3          3         20       20.4      -15.5     973.39      -19.0
5:15              181          3          3         20       20.4      -15.3     973.46      -18.8
5:16              180          0          3         20       20.4      -15.1     973.39      -15.1
5:17              181          0          0         20       20.5      -15.0     973.36      -15.0
5:18              181          0          0         20       20.5      -15.1     973.49      -15.1
5:19              181          0          0         20       20.6      -15.7     973.56      -15.7
5:20              181          0          0         20       20.6      -16.0     973.53      -16.0
5:21              181          0          0         20       20.6      -16.1     973.49      -16.1
5:22              181          0          0         20       20.6      -16.2     973.42      -16.2
5:23              181          0          1         20       20.6      -16.0     973.42      -16.0
5:24              180          0          0         20       20.6      -15.8     973.36      -15.8
5:25              180          2          2         20       20.6      -15.8     973.46      -17.9
5:26              181          0          2         19       20.6      -15.9     972.65      -15.9
5:27              180          0          0         19       20.6      -16.3     972.65      -16.3
5:28              180          1          2         18       20.6      -16.4     972.54      -16.4
5:29              181          0          1         18       20.5      -16.3     972.71      -16.3
5:30              181          0          0         17       20.4      -15.6     972.61      -15.6
5:31              181          0          0         17       20.4      -15.3     972.68      -15.3
5:32              180          0          0         16       20.3      -15.6     972.61      -15.6
5:33              181          1          1         16       20.2      -15.7     972.54      -15.7
5:34              180          2          3         16       20.1      -15.6     972.54      -17.7
5:35              181          2          3         17       20.0      -15.4     973.36      -17.5
5:36              181          1          3         17       19.9      -14.9     973.39      -14.9
5:37              181          3          3         17       19.8      -14.5     973.39      -17.9
5:38              181          0          3         18       19.8      -14.5     973.39      -14.5
5:39              182          3          3         18       19.8      -14.6     973.26      -19.0
5:40              180          3          4         19       19.7      -15.8     973.29      -19.3
5:41              180          1          3         19       19.7      -15.1     973.39      -15.1
5:42              181          0          1         20       19.7      -14.4     973.36      -14.4
5:43              181          1          3         20       19.7      -14.0     973.15      -14.0
5:44              181          2          2         21       19.7      -13.3     973.29      -15.2
5:45              181          0          2         21       19.7      -13.6     973.29      -13.6
5:46              180          0          0         21       19.7      -13.9     973.32      -13.9
5:47              181          0          0         22       19.7      -14.0     973.29      -14.0
5:48              181          3          4         22       19.7      -13.4     973.32      -16.7
5:49              181          1          3         22       19.7      -14.1     973.26      -14.1
5:50              180          2          2         22       19.7      -14.2     973.12      -16.1
5:51              181          2          3         23       19.7      -14.4     973.19      -16.4
5:52              180          3          3         23       19.8      -14.6     973.19      -18.0
5:53              181          2          4         23       19.8      -14.7     973.32      -16.8
5:54              187          4          5         23       19.8      -14.8     973.36      -20.1
5:55              194          3          5         23       19.8      -14.8     973.19      -19.2
5:56              197          3          6         23       19.8      -15.0     973.15      -19.5
5:57              198          5          5         24       19.8      -14.7     973.32      -20.7
5:58              199          4          5         24       19.8      -14.8     973.26      -20.2
5:59              204          5          6         24       19.8      -14.8     973.22      -20.9
6:00              207          3          6         24       19.8      -14.7     973.32      -19.2
6:01              207          3          6         24       19.8      -14.9     973.22      -19.4
6:02              207          3          5         25       19.8      -14.8     973.26      -18.2
6:03              207          4          7         25       19.8      -14.8     973.26      -20.2
6:04              206          6          7         25       19.8      -14.8     973.26      -21.5
6:05              207          5          7         25       19.9      -14.8     973.39      -20.8
6:06              206          3          6         25       19.9      -14.7     973.29      -18.1
6:07              206          6          6         25       19.9      -14.9     973.19      -21.6
6:08              206          4          6         26       19.9      -15.0     973.12      -20.4
6:09              206          5          6         26       19.9      -15.0     973.15      -21.1
6:10              206          5          6         26       19.9      -14.9     973.19      -21.0
6:11              206          3          5         26       19.9      -15.1     973.29      -19.6
6:12              207          4          4         26       19.9      -14.9     973.12      -20.3
6:13              206          4          5         26       19.9      -15.0     973.12      -20.4
6:14              206          5          5         27       19.9      -15.1     973.15      -21.1
6:15              207          3          5         27       20.0      -14.9     973.19      -18.4
6:16              206          3          3         26       20.0      -15.3     973.19      -19.9
6:17              207          3          3         26       20.0      -15.7     973.19      -19.3
6:18              206          3          4         25       20.1      -15.6     973.15      -20.2
6:19              206          1          4         25       20.1      -15.6     973.29      -15.6
6:20              206          2          3         24       20.1      -15.8     973.22      -18.0
6:21              206          3          3         24       20.1      -16.2     973.09      -19.8
6:22              206          1          3         24       20.2      -15.9     973.19      -15.9
6:23              207          0          3         23       20.2      -16.1     973.05      -16.1
6:24              206          2          3         23       20.2      -15.9     973.15      -18.0
6:25              206          2          2         23       20.2      -15.8     973.02      -18.0
6:26              206          1          3         23       20.2      -16.2     973.02      -16.2
6:27              206          1          2         22       20.3      -16.2     973.09      -16.2
6:28              206          1          2         22       20.3      -16.4     973.05      -16.4
6:29              206          2          3         22       20.3      -16.6     973.12      -18.8
6:30              206          1          3         22       20.3      -17.2     973.09      -17.2
6:31              206          1          2         22       20.3      -17.3     972.92      -17.3
6:32              206          0          1         21       20.4      -16.9     972.98      -16.9
6:33              206          1          2         21       20.4      -16.9     972.98      -16.9
6:34              206          0          2         21       20.4      -16.7     972.92      -16.7
6:35              206          0          3         21       20.4      -16.2     972.98      -16.2
6:36              206          1          2         21       20.4      -16.1     973.05      -16.1
6:37              206          1          2         21       20.5      -16.0     972.95      -16.0
6:38              206          1          1         21       20.5      -15.9     972.95      -15.9
6:39              207          3          3         21       20.5      -15.9     972.92      -20.6
6:40              207          1          3         20       20.6      -15.6     972.95      -15.6
6:41              207          0          2         20       20.6      -15.7     972.92      -15.7
6:42              206          0          2         20       20.6      -15.5     972.81      -15.5
6:43              206          0          1         20       20.6      -15.8     972.92      -15.8
6:44              206          0          2         20       20.6      -16.2     972.04      -16.2
6:45              206          2          3         20       20.6      -16.0     972.04      -18.2
6:46              206          0          2         19       20.6      -15.8     972.00      -15.8
6:47              206          0          0         18       20.5      -15.5     972.10      -15.5
6:48              207          0          0         18       20.4      -15.8     972.14      -15.8
6:49              207          0          1         17       20.4      -15.8     972.10      -15.8
6:50              207          0          1         17       20.3      -16.1     971.93      -16.1
6:51              206          0          1         16       20.2      -16.4     971.97      -16.4
6:52              207          0          0         16       20.1      -16.5     972.07      -16.5
6:53              207          0          3         16       20.0      -16.2     972.92      -16.2
6:54              205          0          3         17       19.9      -16.1     972.81      -16.1
6:55              206          0          1         17       19.8      -15.8     973.02      -15.8
6:56              206          1          2         18       19.8      -15.8     972.88      -15.8
6:57              207          2          2         18       19.8      -15.7     972.92      -17.9
6:58              206          0          2         19       19.7      -15.7     972.92      -15.7
6:59              206          0          1         19       19.7      -15.7     972.81      -15.7
7:00              206          2          3         20       19.7      -16.3     972.85      -18.5
7:01              207          3          4         20       19.7      -16.2     972.81      -19.8
7:02              206          3          3         20       19.7      -16.8     972.92      -20.5
7:03              206          2          3         21       19.7      -16.6     973.05      -18.8
7:04              207          2          3         21       19.7      -16.3     972.85      -18.5
7:05              207          3          3         22       19.7      -16.3     972.85      -19.9
7:06              206          0          3         22       19.7      -16.1     972.85      -16.1
7:07              207          2          2         22       19.7      -15.8     972.85      -18.0
7:08              206          2          3         22       19.7      -15.8     972.81      -18.0
7:09              206          3          3         22       19.8      -15.9     972.78      -19.5
7:10              206          3          4         23       19.7      -15.9     972.61      -20.6
7:11              206          3          4         23       19.8      -15.8     972.68      -20.4
7:12              205          3          4         23       19.8      -15.7     972.75      -20.3
7:13              205          3          4         23       19.8      -15.7     972.85      -20.3
7:14              204          3          4         24       19.8      -15.7     972.75      -20.3
7:15              204          3          4         24       19.8      -15.8     972.71      -20.4
7:16              204          4          5         24       19.8      -15.5     972.61      -20.9
7:17              201          5          6         24       19.8      -15.4     972.58      -21.6
7:18              191          4          6         24       19.8      -15.2     972.71      -20.6
7:19              164          7          7         24       19.8      -15.4     972.65      -22.7
7:20               55          6          8         24       19.8      -15.4     972.68      -22.2
7:21               43          6          7         25       19.8      -15.5     972.75      -22.3
7:22               41          4          6         25       19.8      -15.1     972.61      -20.4
7:23               41          3          4         25       19.9      -15.1     972.81      -18.6
7:24               41          3          5         25       19.9      -14.9     972.68      -19.4
7:25               41          0          4         25       19.9      -14.9     972.65      -14.9
7:26               41          2          2         25       19.9      -14.9     972.65      -17.0
7:27               41          0          2         25       19.9      -14.9     972.54      -14.9
7:28               41          0          0         25       19.9      -14.9     972.65      -14.9
7:29               41          0          0         26       19.9      -15.0     972.48      -15.0
7:30               41          0          0         26       19.9      -15.3     972.54      -15.3
7:31               41          2          2         26       19.9      -15.2     972.65      -17.3
7:32               41          0          2         26       19.9      -15.3     972.61      -15.3
7:33               41          0          1         26       19.9      -14.9     972.75      -14.9
7:34               41          0          0         26       20.0      -14.5     972.81      -14.5
7:35               41          3          3         26       20.0      -14.2     972.75      -17.6
7:36               41          0          3         26       20.0      -14.2     972.75      -14.2
7:37               41          0          0         26       20.0      -13.9     972.51      -13.9
7:38               41          0          0         27       20.0      -14.0     972.51      -14.0
7:39               41          0          0         27       20.0      -14.7     972.41      -14.7
7:40               41          0          0         27       20.1      -15.7     972.58      -15.7
7:41               41          0          0         27       20.1      -16.6     972.48      -16.6
7:42               41          0          0         26       20.1      -16.4     972.44      -16.4
7:43               41          0          1         26       20.1      -16.0     972.54      -16.0
7:44               41          2          2         25       20.1      -16.0     972.54      -18.2
7:45               41          1          2         25       20.1      -15.9     972.54      -15.9
7:46               41          2          2         24       20.2      -15.8     972.48      -18.0
7:47               41          0          2         24       20.2      -15.7     972.58      -15.7
7:48               41          2          2         24       20.2      -15.5     972.65      -17.6
7:49               41          3          3         23       20.2      -15.5     972.58      -19.0
7:50               41          3          3         23       20.2      -15.8     972.54      -19.4
7:51               41          3          3         23       20.3      -15.7     972.48      -20.3
7:52               41          3          3         23       20.3      -15.2     972.48      -18.7
7:53               41          3          3         23       20.3      -15.0     972.51      -18.5
7:54               41          3          3         22       20.3      -15.0     972.58      -19.5
7:55               41          3          3         22       20.3      -14.9     972.48      -19.4
7:56               41          3          4         22       20.4      -14.7     972.54      -19.2
7:57               41          3          4         22       20.4      -14.8     972.48      -18.3
7:58               41          3          4         22       20.4      -15.0     972.48      -19.5
7:59               41          3          4         22       20.4      -15.1     972.58      -19.6
8:00               41          3          3         22       20.4      -15.2     972.54      -18.6
8:01               41          3          3         22       20.4      -15.3     972.54      -18.8
8:02               41          1          3         21       20.5      -14.8     972.44      -14.8
8:03               41          0          1         21       20.5      -14.3     972.44      -14.3
8:04               41          0          0         21       20.5      -14.1     972.44      -14.1
8:05               41          2          3         21       20.6      -13.6     972.31      -15.5
8:06               41          1          3         21       20.6      -13.7     972.37      -13.7
8:07               41          2          3         21       20.6      -14.3     972.37      -16.3
8:08               41          0          2         21       20.6      -14.7     972.37      -14.7
8:09               41          0          0         20       20.6      -14.7     972.48      -14.7
8:10               41          0          0         20       20.6      -14.8     971.63      -14.8
8:11               41          0          0         20       20.6      -14.7     971.66      -14.7
8:12               41          0          0         19       20.6      -14.7     971.66      -14.7
8:13               41          0          0         18       20.5      -15.0     971.53      -15.0
8:14               41          0          0         18       20.4      -14.7     971.56      -14.7
8:15               41          0          0         17       20.3      -14.2     971.60      -14.2
8:16               41          0          0         17       20.3      -14.3     971.49      -14.3
8:17               41          1          2         16       20.2      -14.5     971.53      -14.5
8:18               41          2          3         16       20.1      -15.1     971.63      -17.1
8:19               41          2          3         16       20.0      -15.1     972.48      -17.1
8:20               41          3          3         16       19.9      -15.2     972.27      -19.8
8:21               41          3          3         17       19.8      -15.2     972.37      -18.7
8:22               41          2          3         18       19.8      -15.3     972.27      -17.4
8:23               41          3          3         18       19.7      -15.1     972.27      -18.5
8:24               41          3          3         18       19.7      -14.8     972.27      -18.2
8:25               41          3          3         19       19.7      -14.9     972.27      -19.4
8:26               41          3          3         20       19.7      -14.9     972.27      -18.3
8:27               41          3          3         20       19.7      -14.8     972.37      -18.3
8:28               41          3          3         20       19.7      -14.9     972.27      -18.4
8:29               41          2          3         21       19.7      -14.9     972.44      -16.9
8:30               41          1          2         21       19.7      -14.7     972.31      -14.7
8:31               41          1          2         21       19.7      -14.7     972.24      -14.7
8:32               41          2          3         22       19.7      -14.6     972.44      -16.6
8:33               41          0          3         22       19.7      -14.4     972.37      -14.4
8:34               41          2          2         22       19.7      -14.4     972.31      -16.4
8:35               41          0          2         22       19.7      -14.3     972.31      -14.3
8:36               41          0          0         23       19.7      -14.3     972.27      -14.3
8:37               41          0          0         23       19.7      -13.9     972.34      -13.9
8:38               41          0          0         23       19.7      -13.7     972.21      -13.7
8:39               41          0          0         24       19.7      -13.6     972.21      -13.6
8:40               41          0          0         24       19.7      -13.7     972.10      -13.7
8:41               41          0          0         24       19.7      -13.9     972.17      -13.9
8:42               41          0          0         24       19.7      -14.1     972.21      -14.1
8:43               41          0          0         24       19.8      -14.2     972.14      -14.2
8:44               41          0          0         25       19.8      -14.2     972.21      -14.2
8:45               41          0          0         25       19.8      -14.3     972.17      -14.3
8:46               41          0          0         25       19.8      -14.2     972.10      -14.2
8:47               41          0          0         25       19.8      -14.3     972.10      -14.3
8:48               41          0          0         25       19.8      -14.5     972.10      -14.5
8:49               41          0          0         25       19.8      -14.7     972.24      -14.7
8:50               41          0          0         26       19.8      -14.7     972.24      -14.7
8:51               41          0          0         26       19.8      -14.7     972.21      -14.7
8:52               41          0          0         26       19.8      -14.3     972.14      -14.3
8:53               41          0          0         26       19.9      -14.7     972.17      -14.7
8:54               41          0          0         26       19.9      -15.3     972.21      -15.3
8:55               41          0          0         26       19.9      -15.3     972.24      -15.3
8:56               41          0          0         27       19.9      -14.9     972.10      -14.9
8:57               41          0          0         27       19.9      -14.6     972.14      -14.6
8:58               41          0          0         27       19.9      -14.8     972.17      -14.8
8:59               41          3          3         27       19.9      -15.2     972.00      -18.6
9:00               41          3          4         27       19.9      -14.9     972.00      -19.4
9:01               41          3          3         27       19.9      -14.6     972.00      -18.0
9:02               41          3          3         26       20.0      -14.4     972.07      -18.9
9:03               41          3          4         26       20.0      -14.3     971.97      -17.7
9:04               41          2          3         25       20.1      -14.1     972.00      -16.1
9:05               41          0          2         25       20.1      -13.9     972.14      -13.9
9:06               41          0          0         24       20.1      -13.8     972.10      -13.8
9:07               41          0          0         24       20.1      -13.8     972.14      -13.8
9:08               41          0          0         24       20.2      -14.2     972.07      -14.2
9:09               41          1          3         23       20.2      -13.9     972.00      -13.9
9:10               41          0          2         23       20.2      -13.7     972.10      -13.7
9:11               41          0          0         23       20.2      -13.3     972.10      -13.3
9:12               41          0          0         23       20.2      -12.9     972.10      -12.9
9:13               41          0          0         22       20.3      -12.9     972.04      -12.9
9:14               41          0          0         22       20.3      -12.9     972.10      -12.9
9:15               41          0          0         22       20.3      -13.2     972.04      -13.2
9:16               41          2          3         22       20.3      -13.2     972.10      -15.1
9:17               41          2          3         22       20.3      -13.7     971.97      -15.6
9:18               41          3          3         21       20.3      -13.7     971.93      -16.9
9:19               41          3          3         21       20.4      -13.9     972.00      -17.2
9:20               41          2          3         21       20.4      -13.9     971.90      -15.8
9:21               41          0          2         21       20.4      -13.6     972.04      -13.6
9:22               41          0          0         21       20.4      -13.4     971.93      -13.4
9:23               41          0          0         21       20.4      -13.4     971.87      -13.4
9:24               41          0          0         21       20.4      -13.6     971.87      -13.6
9:25               41          0          0         21       20.5      -13.6     971.97      -13.6
9:26               41          0          0         20       20.5      -13.3     971.87      -13.3
9:27               41          0          0         20       20.5      -13.4     971.93      -13.4
9:28               41          0          0         20       20.6      -13.4     971.87      -13.4
9:29               41          0          0         20       20.6      -13.6     971.90      -13.6
9:30               41          0          0         20       20.6      -13.6     971.93      -13.6
9:31               41          0          0         20       20.6      -13.6     971.83      -13.6
9:32               41          0          0         20       20.6      -13.7     971.90      -13.7
9:33               41          0          0         20       20.6      -13.8     971.87      -13.8
9:34               41          0          0         20       20.6      -13.6     971.87      -13.6
9:35               41          1          2         20       20.7      -13.5     970.92      -13.5
9:36               41          0          1         19       20.7      -13.4     970.92      -13.4
9:37               41          0          0         19       20.6      -13.9     970.82      -13.9
9:38               41          0          0         18       20.6      -14.1     970.85      -14.1
9:39               41          0          0         18       20.4      -13.9     970.88      -13.9
9:40               41          0          0         17       20.4      -13.8     970.78      -13.8
9:41               41          0          0         17       20.3      -13.6     970.78      -13.6
9:42               41          2          2         17       20.2      -13.4     970.85      -15.3
9:43               41          2          3         17       20.1      -13.3     970.78      -15.2
9:44               41          1          2         17       20.0      -13.1     971.66      -13.1
9:45               41          3          3         17       19.9      -13.6     971.70      -16.9
9:46               41          1          3         17       19.8      -13.7     971.70      -13.7
9:47               41          2          3         17       19.8      -13.8     971.66      -15.7
9:48               41          3          3         18       19.8      -14.1     971.70      -17.4
9:49               41          3          3         19       19.7      -13.9     971.63      -17.2
9:50               41          2          3         19       19.7      -14.0     971.60      -16.0
9:51               41          3          3         20       19.7      -14.6     971.66      -19.0
9:52               41          2          3         20       19.7      -14.3     971.76      -16.3
9:53               41          4          4         20       19.7      -14.2     971.80      -19.4
9:54               36          6          6         21       19.7      -14.4     971.60      -21.0
9:55              356          6          7         21       19.7      -14.8     971.56      -21.4
9:56              354          3          6         22       19.7      -14.7     971.76      -19.2
9:57              354          2          3         22       19.7      -14.6     971.80      -16.6
9:58              353          2          3         22       19.7      -14.3     971.70      -16.3
9:59              354          3          3         22       19.8      -14.0     971.63      -18.4
10:00             353          3          3         23       19.8      -14.1     971.76      -17.5
10:01             353          0          3         23       19.8      -13.7     971.80      -13.7
10:02             353          2          2         23       19.8      -13.9     971.76      -15.9
10:03             353          3          3         23       19.8      -14.0     971.70      -17.3
10:04             353          3          3         24       19.8      -14.0     971.80      -17.3
10:05             354          2          3         24       19.8      -14.6     971.87      -16.6
10:06             358          3          4         24       19.8      -15.2     971.83      -19.7
10:07               0          4          5         24       19.8      -15.3     971.70      -20.7
10:08               9          5          6         24       19.8      -15.2     971.73      -21.3
10:09              23          6          6         24       19.9      -15.4     971.76      -22.2
10:10              27          5          6         25       19.9      -15.8     971.76      -22.0
10:11              27          6          7         25       19.9      -15.8     971.63      -22.7
10:12              27          6          7         25       19.9      -15.6     971.73      -22.4
10:13              28          5          7         25       19.9      -15.4     971.60      -21.6
10:14              26          5          6         25       19.9      -15.3     971.66      -21.5
10:15              25          5          6         25       19.9      -15.6     971.60      -21.7
10:16              25          4          6         25       19.9      -15.9     971.70      -21.4
10:17              25          5          5         25       19.9      -15.9     971.63      -22.1
10:18              28          5          6         25       19.9      -15.7     971.73      -21.9
10:19              29          5          6         26       19.9      -15.5     971.70      -21.7
10:20              30          6          6         26       19.9      -15.9     971.53      -22.8
10:21              30          6          7         26       19.9      -16.3     971.63      -23.3
10:22              30          4          6         26       20.0      -16.6     971.66      -22.2
10:23              30          4          6         26       20.0      -16.6     971.56      -22.2
10:24              25          8          8         26       20.0      -14.8     971.66      -22.5
10:25              15          9          9         26       20.0      -13.9     971.63      -21.8
10:26              14          8         10         27       20.0      -14.2     971.60      -21.7
10:27              15          8          9         27       20.0      -13.8     971.63      -21.3
10:28              27          7          8         27       20.1      -13.8     971.73      -20.8
10:29              33          6          9         26       20.1      -13.5     971.63      -19.9
10:30              27          6          8         26       20.1      -13.7     971.66      -20.1
10:31              28          8          8         25       20.1      -14.4     971.70      -22.1
10:32              25          6          8         25       20.1      -14.2     971.70      -20.8
10:33              23          6         10         24       20.1      -14.1     971.66      -20.6
10:34              29          8          9         24       20.2      -14.5     971.63      -22.1
10:35              21          7         10         24       20.2      -14.3     971.53      -21.4
10:36              23          7         10         23       20.2      -14.4     971.53      -21.5
10:37              27          9         10         23       20.2      -15.6     971.56      -23.9
10:38              20         10         10         23       20.2      -16.2     971.60      -25.1
10:39              10         11         12         23       20.3      -15.3     971.46      -24.7
10:40              12          7         11         23       20.3      -14.1     971.46      -21.1
10:41              19          8         10         22       20.3      -14.6     971.49      -22.3
10:42               4         10         11         22       20.3      -13.9     971.39      -22.3
10:43               9          9         11         22       20.3      -13.8     971.53      -21.7
10:44               0         10         10         22       20.3      -13.7     971.49      -22.4
10:45               2          8         10         22       20.3      -13.7     971.56      -21.2
10:46             343          8         10         22       20.4      -14.4     971.46      -22.0
10:47             332         10         11         22       20.4      -14.1     971.49      -22.5
10:48             355         10         11         21       20.4      -13.9     971.43      -22.2
10:49             329         10         10         21       20.4      -13.8     971.39      -22.1
10:50             352          9         10         21       20.4      -13.8     971.29      -21.7
10:51               0         10         10         21       20.4      -13.9     971.43      -22.3
10:52               0          9         10         21       20.4      -13.9     971.43      -21.8
10:53             337          9         10         21       20.4      -13.6     971.46      -21.4
10:54             359          9         10         21       20.4      -13.1     971.36      -20.8
10:55               0         10         10         20       20.5      -13.3     971.53      -21.9
10:56             333         10         10         20       20.5      -13.6     971.32      -21.9
10:57             339         10         10         20       20.5      -13.4     971.39      -22.0
10:58             358          9         10         20       20.6      -13.7     971.39      -21.5
10:59             357          8         10         20       20.6      -13.7     971.32      -21.1
11:00             358         10         10         20       20.6      -14.2     971.39      -22.9
11:01             328         11         11         20       20.6      -13.9     971.26      -22.9
11:02             326         10         11         20       20.6      -13.2     971.29      -21.7
11:03             351         10         11         20       20.6      -13.3     971.32      -21.5
11:04               0         10         11         20       20.6      -13.4     971.29      -22.0
11:05               0         10         11         20       20.6      -13.3     971.32      -21.8
11:06               0         10         11         19       20.6      -13.2     971.22      -21.7
11:07             355         10         10         19       20.6      -13.2     971.39      -21.4
11:08             358          7         10         19       20.6      -13.1     971.29      -19.9
11:09               0          7          9         19       20.6      -13.1     971.29      -19.9
11:10             359          7          8         19       20.6      -13.2     971.32      -20.0
11:11             354          9          9         19       20.6      -13.7     971.29      -21.6
11:12             355          8          9         19       20.6      -13.6     971.26      -21.0
11:13             356          7          8         19       20.6      -13.7     971.29      -20.7
11:14             353          8          8         19       20.6      -13.8     971.32      -21.3
11:15             357         10         10         19       20.6      -13.2     971.16      -21.3
11:16             358          9         10         20       20.6      -13.4     971.32      -21.2
11:17             342          9         10         20       20.6      -13.0     971.19      -20.7
11:18               2         10         10         21       20.6      -13.2     971.02      -21.4
11:19               0         10         10         21       20.6      -13.4     971.12      -22.0
11:20               0         10         10         22       20.6      -13.3     971.05      -21.8
11:21             340         10         10         22       20.6      -13.3     971.02      -21.9
11:22             356         10         11         22       20.6      -13.3     971.05      -21.8
11:23               0          9         10         23       20.6      -12.8     971.09      -20.5
11:24               0         10         10         23       20.6      -13.0     971.09      -21.1
11:25             358          9         10         23       20.6      -12.6     971.22      -20.2
11:26             358          9          9         24       20.6      -12.9     971.16      -20.6
11:27             359          8          9         24       20.6      -12.9     971.02      -20.1
11:28             356          8         10         24       20.6      -12.7     971.09      -19.9
11:29               0          8          9         24       20.6      -12.8     971.16      -20.0
11:30             355          7          9         24       20.6      -12.4     971.19      -19.1
11:31             358          8          9         25       20.6      -12.4     971.16      -19.5
11:32             357          7          9         25       20.6      -12.2     971.12      -18.9
11:33             355          6          8         25       20.6      -12.4     971.16      -18.6
11:34             354          6          7         25       20.6      -12.4     971.16      -18.6
11:35             355          6          7         25       20.6      -12.1     971.16      -18.2
11:36             356          7          7         25       20.6      -12.1     971.12      -18.7
11:37             351          7          9         26       20.6      -11.8     971.12      -18.4
11:38             359          9          9         26       20.6      -11.9     971.12      -19.4
11:39               0          8         10         26       20.6      -12.1     971.19      -19.1
11:40               0          9          9         26       20.6      -11.9     971.12      -19.3
11:41               0         10         10         26       20.7      -12.4     971.02      -20.3
11:42             333         10         10         26       20.7      -12.7     971.02      -21.1
11:43             335         10         10         26       20.6      -12.4     971.09      -20.4
11:44               1         10         10         26       20.7      -12.2     971.12      -20.1
11:45               0         10         10         27       20.7      -12.2     971.12      -20.1
11:46               0         10         10         27       20.7      -12.1     971.02      -19.9
11:47               0          9         10         27       20.6      -12.0     971.09      -19.5
11:48               0          9         10         27       20.7      -12.1     971.02      -19.6
11:49               0          9         10         27       20.7      -12.3     971.05      -19.8
11:50             345          9          9         27       20.7      -11.9     971.05      -19.4
11:51             332         10         10         27       20.7      -11.8     971.09      -19.6
11:52               0          8         10         27       20.7      -11.9     971.02      -18.9
11:53               0          7         10         26       20.7      -12.1     971.09      -18.7
11:54             358          7          8         26       20.7      -12.1     971.22      -18.7
11:55             358          7          8         25       20.7      -12.3     971.09      -19.0
11:56               0          7          8         25       20.7      -12.2     971.09      -18.8
11:57             359          9          9         24       20.7      -12.1     971.12      -19.5
11:58             329          8          9         24       20.7      -11.7     971.12      -18.6
11:59               0         10         10         24       20.7      -11.9     971.02      -19.8
12:00             359          9         10         24       20.8      -11.8     971.05      -19.2
12:01               0          8         10         23       20.8      -12.1     971.05      -19.1
12:02             339         10         10         23       20.8      -12.4     971.05      -20.8
12:03             335          9         10         23       20.8      -11.7     971.05      -19.1
12:04             358         10         10         23       20.8      -11.6     970.95      -19.3
12:05             331         10         10         22       20.8      -12.0     970.92      -19.9
12:06             340         10         11         22       20.8      -11.7     971.09      -19.9
12:07               0         10         11         22       20.8      -12.2     971.02      -20.1
12:08               0         10         10         22       20.8      -12.4     970.92      -20.4
12:09             355          8         10         22       20.8      -12.6     970.92      -19.7
12:10             354         10         11         22       20.8      -12.7     970.92      -21.1
12:11             352          9         11         22       20.8      -12.2     970.99      -19.7
12:12             359          7         10         21       20.8      -12.1     970.95      -18.7
12:13               0          9          9         21       20.9      -12.0     970.95      -19.5
12:14             344          8         10         21       20.9      -12.0     970.99      -19.0
12:15             352          5          9         21       20.9      -12.3     970.95      -17.9
12:16             347          5          6         21       20.9      -12.5     970.95      -18.1
12:17             344          6          8         21       20.9      -12.4     971.05      -18.5
12:18             354          7          9         21       20.9      -12.2     970.92      -18.9
12:19             358          9         10         21       20.9      -12.4     970.82      -20.0
12:20             334          7          9         21       20.9      -12.2     970.85      -18.8
12:21             359          6          8         21       20.9      -12.2     970.85      -18.3
12:22               0          5          8         20       20.9      -12.6     969.97      -18.2
12:23              35          5          5         20       20.9      -13.8     970.04      -19.6
12:24              31          4          6         20       20.9      -14.6     970.04      -19.9
12:25              18          6          7         19       20.8      -14.3     970.11      -20.9
12:26               3          9         10         18       20.7      -13.8     970.11      -21.7
12:27              28          5          9         18       20.7      -13.7     969.97      -19.5
12:28              30          5          7         17       20.6      -14.2     969.94      -20.1
12:29               6          5          9         17       20.5      -13.6     969.77      -19.3
12:30              17          8         10         17       20.4      -12.9     969.73      -20.2
12:31               9          8          9         17       20.3      -13.7     969.63      -21.2
12:32               2         10         10         17       20.2      -13.1     969.63      -21.6
12:33             354         11         11         17       20.1      -12.6     969.73      -21.3
12:34               1         10         11         17       20.0      -12.4     970.55      -20.4
12:35             351         10         12         17       19.9      -12.7     970.41      -21.1
12:36             342         13         13         18       19.9      -12.6     970.55      -21.9
12:37             339         10         13         18       19.8      -12.2     970.55      -20.5
12:38               0         11         13         19       19.8      -12.3     970.65      -21.0
12:39             353         13         13         20       19.8      -12.1     970.48      -21.2
12:40             349         10         13         20       19.8      -12.1     970.61      -20.0
12:41             354         11         13         20       19.8      -12.1     970.75      -20.6
12:42             354         13         16         20       19.8      -11.8     970.48      -20.9
12:43             353         14         17         21       19.7      -11.7     970.48      -21.0
12:44             346         12         14         21       19.7      -12.1     970.34      -20.9
12:45             345         13         17         21       19.7      -12.1     970.38      -21.2
12:46             340         11         15         22       19.7      -11.9     970.34      -20.5
12:47             344         13         15         22       19.7      -11.9     970.41      -21.0
12:48             351         13         13         22       19.7      -11.9     970.38      -21.1
12:49             344         14         16         23       19.7      -12.0     970.41      -21.4
12:50             337         13         15         23       19.7      -11.9     970.41      -21.0
12:51             340         10         15         23       19.6      -12.0     970.38      -20.2
12:52             340         13         16         23       19.6      -11.9     970.41      -21.0
12:53             341         15         17         23       19.6      -12.0     970.31      -21.7
12:54             352         11         15         24       19.6      -11.9     970.41      -20.5
12:55             340         12         14         24       19.6      -11.9     970.48      -20.8
12:56             345          9         12         24       19.6      -12.1     970.38      -19.5
12:57             353          9          9         24       19.6      -12.2     970.44      -19.7
12:58             337          9         10         24       19.5      -12.1     970.38      -19.6
12:59             343          9         10         24       19.6      -12.1     970.34      -19.6
13:00             342         10         11         24       19.5      -12.2     970.44      -20.1
13:01             349         11         13         25       19.5      -12.0     970.38      -20.5
13:02             348         10         12         25       19.5      -12.1     970.44      -19.9
13:03             359         10         10         25       19.5      -12.4     970.41      -20.3
13:04             354         13         16         25       19.5      -11.9     970.27      -21.1
13:05             351         10         13         25       19.5      -12.1     970.48      -19.9
13:06             353         10         12         26       19.5      -11.9     970.24      -20.1
13:07               1         10         11         26       19.5      -12.0     970.17      -19.9
13:08             356         10         12         26       19.4      -12.1     970.27      -20.4
13:09             353         10         13         26       19.4      -12.4     970.34      -20.7
13:10             357         10         11         26       19.4      -12.1     970.17      -20.3
13:11             355         10         11         26       19.4      -12.2     970.34      -20.5
13:12               0          9         10         26       19.4      -12.2     970.31      -19.7
13:13             347          7         10         27       19.4      -12.6     970.21      -19.3
13:14             341          6         11         27       19.4      -12.6     970.31      -18.7
13:15             338          9         10         27       19.4      -12.1     970.38      -19.6
13:16             349          6         10         27       19.4      -12.3     970.51      -18.5
13:17             357          6          8         27       19.5      -12.4     970.51      -18.5
13:18             344          7          8         26       19.6      -12.5     970.51      -19.2
13:19             341          7          8         26       19.6      -12.4     970.34      -19.1
13:20             342          4          7         25       19.7      -12.2     970.55      -17.0
13:21             340          4          7         25       19.7      -12.4     970.58      -17.4
13:22             344          6          7         24       19.7      -12.6     970.48      -18.7
13:23             343          6          6         24       19.7      -12.4     970.38      -18.5
13:24             350          3          6         24       19.7      -12.5     970.55      -16.6
13:25               0          6          7         24       19.7      -12.6     970.55      -18.7
13:26             359          5          6         23       19.7      -12.3     970.41      -17.9
13:27             351          4          5         23       19.7      -12.9     970.38      -17.9
13:28               0          3          4         23       19.7      -13.2     970.34      -16.4
13:29               4          1          4         23       19.8      -13.8     970.51      -13.8
13:30              13          3          5         22       19.8      -13.9     970.58      -18.2
13:31              24          4          5         22       19.8      -13.7     970.48      -18.9
13:32              25          3          4         22       19.8      -13.8     970.58      -18.1
13:33              25          3          4         22       19.8      -13.7     970.55      -16.9
13:34              25          2          3         22       19.9      -13.6     970.58      -15.5
13:35              25          0          2         22       19.9      -13.6     970.68      -13.6
13:36              25          0          0         22       19.9      -13.5     970.65      -13.5
13:37              25          0          0         21       19.9      -13.5     970.72      -13.5
13:38              31          6          6         21       19.9      -13.4     970.65      -19.8
13:39             196          4          6         21       20.0      -13.8     970.68      -18.9
13:40             196          4          5         21       20.1      -13.8     970.75      -18.9
13:41             196          2          6         21       20.1      -13.9     970.82      -15.9
13:42             189          5          6         21       20.1      -13.9     970.85      -19.7
13:43             120         12         13         21       20.1      -14.5     970.68      -24.0
13:44             133         10         13         21       20.1      -14.9     970.65      -23.5
13:45             124         10         11         20       20.2      -15.1     970.58      -24.1
13:46             123         11         13         20       20.2      -15.0     970.65      -24.3
13:47             118         12         14         20       20.2      -14.9     970.55      -24.6
13:48             116         12         14         20       20.2      -15.2     970.51      -24.9
13:49             111         13         13         20       20.2      -15.3     970.61      -25.4
13:50             109         10         14         20       20.2      -15.7     970.48      -24.8
13:51             105         14         17         20       20.3      -16.4     970.51      -27.1
13:52             102         18         19         20       20.3      -17.3     970.48      -29.7
13:53             101         23         23         20       20.3      -17.5     970.41      -31.0
13:54              96         19         23         19       20.3      -17.7     970.34      -30.5
13:55              92         13         25         19       20.3      -18.3     970.17      -29.3
13:56              83         16         23         19       20.3      -18.3     970.17      -30.2
13:57              87         14         21         19       20.4      -18.7     970.14      -30.1
13:58              84         16         20         19       20.4      -19.2     970.07      -31.3
13:59              88         18         24         19       20.4      -19.3     970.14      -32.3
14:00              75         23         23         19       20.4      -19.2     970.17      -33.5
14:01              80         19         23         18       20.4      -19.6     970.17      -32.8
14:02              89         15         31         18       20.4      -19.6     970.04      -31.5
14:03              79         21         21         18       20.5      -19.7     969.97      -33.5
14:04              83         83         88         19       20.5      -19.6     969.90      -41.8
14:05              83         84         86         19       20.6      -19.6     969.94      -42.0
14:06              83         82         85         19       20.5      -19.6     970.04      -41.8
14:07              88         81         87         20       20.6      -19.7     969.90      -41.8
14:08              87         84         86         20       20.6      -19.7     970.07      -42.1
14:09              88         83         87         20       20.6      -19.8     970.27      -42.2
14:10              84         44         86         21       20.5      -20.1     970.14      -38.5
14:11              91         75         86         21       20.6      -20.0     970.14      -41.7
14:12              75         84         87         21       20.6      -20.1     970.14      -42.7
14:13              89         84         86         21       20.6      -20.2     970.07      -42.8
14:14              86         84         86         22       20.6      -20.1     970.11      -42.7
14:15              85         83         88         22       20.6      -20.1     969.90      -42.5
14:16              81         83         84         22       20.6      -20.2     970.11      -42.8
14:17              75         82         88         22       20.6      -20.2     970.04      -42.6
14:18              71         84         86         22       20.6      -20.1     970.21      -42.7
14:19              79         25         86         22       20.6      -19.8     970.07      -34.7
14:20              83         22         25         22       20.6      -20.2     970.07      -34.4
14:21              93         21         23         22       20.6      -20.0     969.97      -33.9
14:22              88         11         23         23       20.6      -20.0     969.83      -30.7
14:23              68         19         23         23       20.6      -20.1     970.04      -33.5
14:24              77         19         23         23       20.6      -20.1     969.94      -33.5
14:25              83         19         25         23       20.6      -20.1     969.90      -33.5
14:26              94         25         25         23       20.6      -20.0     969.90      -35.0
14:27              84         17         48         23       20.6      -20.1     969.83      -32.8
14:28              76         22         23         23       20.6      -20.0     969.77      -34.1
14:29              74         25         26         23       20.6      -19.7     969.73      -34.5
14:30              78         19         25         23       20.6      -19.7     969.70      -33.0
14:31              76         20         23         23       20.6      -19.8     969.56      -33.4
14:32              77         18         27         23       20.6      -19.7     969.87      -32.8
14:33              85         17         26         23       20.5      -19.7     969.70      -32.3
14:34              78         22         24         23       20.4      -19.8     969.53      -33.9
14:35              72         20         23         23       20.4      -19.8     969.87      -33.5
14:36              77         22         24         23       20.4      -19.8     969.63      -33.8
14:37              87         16         25         23       20.4      -19.7     969.73      -32.0
14:38              74         19         26         23       20.3      -19.6     969.83      -32.8
14:39              71         19         28         23       20.3      -19.9     969.73      -33.4
14:40              72         17         23         23       20.3      -19.9     969.97      -32.8
14:41              70         19         23         23       20.3      -19.8     970.00      -33.2
14:42              75         22         23         23       20.3      -19.9     969.80      -34.0
14:43              73         20         24         23       20.2      -19.5     969.94      -33.0
14:44              76         21         24         23       20.2      -19.7     969.87      -33.5
14:45              73         24         24         23       20.2      -19.8     970.14      -34.5
14:46              68         23         24         24       20.2      -19.8     970.14      -34.3
14:47              76         20         24         23       20.2      -19.6     970.04      -33.1
14:48              72         22         23         24       20.1      -19.5     970.00      -33.5
14:49              71         22         24         24       20.1      -19.8     970.07      -33.9
14:50              71         20         24         24       20.1      -19.7     969.73      -33.2
14:51              74         22         24         24       20.1      -19.9     969.80      -34.1
14:52              74         21         22         24       20.1      -19.7     969.87      -33.5
14:53              69         17         22         24       20.1      -19.9     970.00      -32.8
14:54              81         18         22         24       20.1      -19.8     969.80      -33.0
14:55              80         19         21         24       20.1      -19.7     969.83      -33.1
14:56              78         19         23         24       20.0      -19.8     969.67      -33.1
14:57              75         19         21         24       20.0      -19.6     969.83      -32.9
14:58              72         20         23         24       19.9      -19.8     969.60      -33.5
14:59              79         19         23         24       20.0      -19.7     969.80      -33.1
15:00              80         18         21         24       19.9      -19.8     969.39      -33.0
15:01              61         22         23         24       19.9      -19.7     969.80      -33.8
15:02              77         21         22         24       19.9      -20.0     969.43      -33.9
15:03              81         18         79         24       19.9      -19.9     969.33      -33.1
15:04              81         66         86         24       19.9      -20.0     969.46      -40.9
15:05              90         78         84         24       19.9      -20.0     969.36      -42.1
15:06              85         81         84         24       19.9      -20.2     969.39      -42.5
15:07              81         84         87         25       19.8      -20.1     969.23      -42.7
15:08              78         83         90         25       19.8      -19.9     969.43      -42.3
15:09              80         30         85         24       19.8      -19.8     969.19      -35.8
15:10              74         26         53         24       19.8      -19.7     969.36      -34.7
15:11              85         18         26         24       19.8      -19.7     969.19      -32.7
15:12              76         23         23         24       19.8      -19.8     968.95      -34.1
15:13              70         22         27         24       19.8      -20.1     969.26      -34.3
15:14              75         17         27         24       19.8      -20.0     969.12      -32.6
15:15              81         20         23         24       19.7      -20.2     968.95      -33.9
15:16              82         21         24         25       19.7      -20.0     968.85      -33.9
15:17              70         82         83         25       19.7      -19.9     969.26      -42.3
15:18              73         18         82         24       19.7      -20.1     968.85      -33.2
15:19              82         21         75         25       19.7      -20.1     968.89      -34.0
15:20              75         83         83         25       19.7      -20.1     969.29      -42.6
15:21              80         32         83         24       19.7      -19.8     968.99      -36.2
15:22              82         44         66         25       19.7      -20.3     969.12      -38.7
15:23              81         83         86         25       19.6      -20.1     968.75      -42.6
15:24              75         18         83         25       19.6      -20.2     969.09      -33.5
15:25              78         23         29         24       19.6      -20.5     968.89      -35.0
15:26              80         27         27         24       19.6      -20.5     968.92      -36.0
15:27              76         21         84         25       19.6      -20.6     968.85      -34.7
15:28              74         21         54         25       19.5      -20.4     968.99      -34.4
15:29              71         23         33         24       19.5      -20.4     968.65      -34.9
15:30              74         23         27         25       19.5      -20.6     968.58      -35.1
15:31              64         12         27         25       19.5      -20.7     968.89      -31.9
15:32              85         74         76         25       19.4      -20.8     968.41      -42.9
15:33              88         45         77         25       19.4      -20.8     968.68      -39.6
15:34              78         29         63         25       19.4      -20.5     968.72      -36.4
15:35              51         83         89         25       19.4      -20.6     969.19      -43.3
15:36              84         25         85         25       19.4      -20.7     968.78      -35.9
15:37              73         82         88         25       19.4      -20.7     968.92      -43.4
15:38              72         24         86         25       19.3      -20.4     968.95      -35.4
15:39              73         85         85         25       19.3      -20.3     968.68      -43.1
15:40              78         43         88         25       19.3      -20.8     969.06      -39.3
15:41              70         82         86         25       19.3      -20.7     968.95      -43.4
15:42              72         76         85         25       19.3      -20.3     968.68      -42.3
15:43              65         87         87         25       19.3      -20.9     969.12      -44.1
15:44              83         77         87         25       19.3      -20.5     968.65      -42.7
15:45              77         56         86         25       19.3      -20.2     968.51      -40.1
15:46              74         19         83         25       19.4      -20.2     968.38      -33.6
15:47              65         20         83         25       19.3      -20.5     968.92      -34.3
15:48              71         79         90         25       19.3      -20.4     968.68      -42.8
15:49              79         58         86         25       19.3      -20.7     968.62      -41.1
15:50              77         80         86         25       19.3      -20.4     968.48      -42.9
15:51              63         83         90         25       19.3      -20.4     968.82      -43.1
15:52              85         83         87         25       19.3      -20.4     968.72      -43.0
15:53              77         88         88         25       19.2      -20.3     968.89      -43.4
15:54              77         83         88         25       19.2      -19.9     968.82      -42.4
15:55              53         86         86         25       19.2      -20.2     969.29      -43.1
15:56              74         59         87         25       19.2      -20.4     968.75      -40.8
15:57              78         19         84         25       19.2      -19.9     968.82      -33.4
15:58              50         68         82         25       19.2      -20.3     968.92      -41.6
15:59              92         21         83         25       19.2      -20.6     968.65      -34.7
16:00              82         20         22         25       19.1      -20.5     968.58      -34.3
16:01              85         19         21         25       19.1      -20.6     968.51      -34.2
16:02              56         33         83         25       19.1      -20.4     969.02      -37.2
16:03              89         20         85         25       19.1      -20.4     968.48      -34.3
16:04              72         24         24         25       19.1      -20.7     968.55      -35.7
16:05              78         21         25         25       19.1      -20.8     968.68      -34.9
16:06              84         22         27         25       19.1      -20.7     968.68      -35.1
16:07              78         23         23         25       19.1      -20.8     968.48      -35.5
16:08              68         23         26         25       19.0      -20.8     969.09      -35.6
16:09              74         19         26         25       19.0      -20.9     968.85      -34.7
16:10              77         20         21         25       19.0      -20.8     968.89      -34.8
16:11              80         23         28         25       18.9      -21.2     968.65      -35.9
16:12              78         19         26         25       18.9      -20.8     968.62      -34.5
16:13              80         19         22         25       18.9      -21.1     968.95      -34.9
16:14              86         18         24         25       18.9      -20.9     968.45      -34.3
16:15              71         23         24         25       18.9      -21.0     968.78      -35.9
16:16              83         21         26         25       18.9      -21.1     968.58      -35.3
16:17              66         23         24         25       18.9      -20.9     968.99      -35.6
16:18              80         19         23         25       18.8      -21.1     968.85      -34.9
16:19              69         22         27         25       18.8      -20.9     968.92      -35.4
16:20              77         22         24         26       18.8      -21.1     968.85      -35.6
16:21              74         21         23         25       18.8      -20.9     968.78      -35.1
16:22              78         21         25         25       18.8      -21.0     968.89      -35.2
16:23              74         18         25         26       18.8      -20.9     969.02      -34.4
16:24              78         23         23         25       18.8      -21.1     968.85      -36.1
16:25              69         23         23         25       18.7      -20.9     969.16      -35.8
16:26              72         21         27         26       18.7      -21.1     969.02      -35.4
16:27              68         22         25         25       18.7      -20.9     968.92      -35.4
16:28              55         25         26         25       18.7      -20.9     969.19      -36.3
16:29              80         16         27         24       18.7      -21.4     968.89      -34.2
16:30              67         23         25         24       18.7      -21.1     968.72      -36.0
16:31              74         15         25         23       18.7      -21.4     968.99      -33.9
16:32              66         23         25         23       18.8      -21.2     969.02      -36.1
16:33              64         21         24         22       18.8      -21.0     969.06      -35.2
16:34              63         24         24         22       18.8      -20.7     968.95      -35.7
16:35              67         17         24         22       18.8      -20.9     969.19      -33.8
16:36              62         25         25         21       18.8      -21.1     969.16      -36.5
16:37              65         19         25         21       18.8      -21.2     968.99      -35.0
16:38              65         23         26         21       18.8      -21.4     968.92      -36.2
16:39              66         20         26         21       18.8      -20.9     968.95      -34.9
16:40              64         23         26         21       18.8      -21.1     968.89      -36.0
16:41              64         20         27         20       18.9      -21.0     968.92      -35.0
16:42              48         24         25         20       18.9      -21.1     969.09      -36.2
16:43              61         22         24         20       18.9      -21.3     968.82      -35.8
16:44              67         16         28         20       18.9      -21.1     969.02      -33.8
16:45              61         26         28         20       18.9      -21.0     968.82      -36.5
16:46              61         26         26         19       18.9      -21.3     968.99      -37.0
16:47              63         23         26         19       18.9      -21.3     968.95      -36.1
16:48              67         23         25         19       18.9      -21.2     968.82      -36.2
16:49              46         13         25         19       18.9      -21.2     968.82      -33.0
16:50              64         22         27         19       18.9      -21.4     968.65      -36.0
16:51              63         24         25         19       18.9      -21.4     968.65      -36.6
16:52              48         18         27         19       18.9      -21.4     968.89      -35.0
16:53              63         26         28         19       18.9      -21.4     968.68      -37.1
16:54              67         18         26         18       18.9      -21.3     968.55      -34.9
16:55              59         26         26         18       18.9      -21.4     968.55      -37.1
16:56              62         16         26         18       18.9      -21.3     968.85      -34.1
16:57              68         20         25         18       18.9      -21.1     968.48      -35.1
16:58              65         21         25         18       18.9      -20.8     968.65      -34.9
16:59              63         22         31         18       18.9      -20.9     968.68      -35.3
17:00              43         17         25         18       18.9      -21.2     968.75      -34.5
17:01              61         27         28         18       18.9      -21.3     968.55      -37.1
17:02              59         19         27         18       18.9      -21.2     968.55      -35.0
17:03              65         21         26         17       18.9      -21.1     968.48      -35.4
17:04              66         15         24         17       18.9      -20.9     968.58      -33.3
17:05              51         16         27         17       18.9      -21.1     968.78      -33.8
17:06              67         14         26         17       18.9      -21.4     968.48      -33.5
17:07              61         21         23         17       18.9      -21.4     968.92      -35.8
17:08              63         23         25         17       18.9      -21.2     968.58      -36.0
17:09              61         17         24         17       18.9      -21.7     968.82      -35.1
17:10              67         18         26         17       18.9      -21.5     968.62      -35.2
17:11              67         23         25         18       18.9      -21.7     968.55      -36.9
17:12              67         18         30         19       18.9      -21.4     968.58      -35.1
17:13              66         23         26         19       18.8      -21.6     968.72      -36.7
17:14              71         23         27         19       18.8      -21.2     968.48      -36.1
17:15              66         23         24         20       18.8      -20.9     968.55      -35.8
17:16              68         23         25         20       18.8      -21.0     968.65      -35.9
17:17              68         23         26         20       18.8      -20.9     968.48      -35.6
17:18              68         22         24         21       18.8      -20.4     968.72      -34.7
17:19              69         17         23         21       18.8      -20.4     968.78      -33.2
17:20              64         24         24         21       18.7      -21.0     968.58      -36.1
17:21              67         24         26         21       18.7      -20.9     968.72      -36.0
17:22              67         25         26         22       18.7      -21.1     968.58      -36.5
17:23              70         24         26         22       18.7      -21.3     968.41      -36.5
17:24              66         17         26         22       18.7      -21.2     968.62      -34.2
17:25              66         19         25         22       18.7      -21.1     968.75      -34.9
17:26              69         23         25         22       18.7      -21.3     968.62      -36.4
17:27              72         24         25         22       18.7      -20.8     968.45      -35.8
17:28              75         22         25         23       18.6      -20.3     968.55      -34.6
17:29              71         25         27         23       18.6      -20.8     968.58      -36.1
17:30              69         25         27         23       18.6      -20.3     968.31      -35.3
17:31              63         27         27         23       18.6      -20.2     968.38      -35.7
17:32              63         28         29         23       18.6      -20.7     968.34      -36.5
17:33              59         22         28         23       18.6      -21.0     968.55      -35.5
17:34              64         26         28         23       18.6      -20.7     968.31      -36.1
17:35              65         26         29         23       18.6      -19.9     968.31      -35.1
17:36              62         25         27         23       18.6      -20.3     968.55      -35.3
17:37              58         21         25         24       18.6      -20.3     968.31      -34.3
17:38              59         22         23         24       18.6      -20.4     968.34      -34.7
17:39              53         17         25         24       18.6      -21.2     968.38      -34.2
17:40              53         25         29         24       18.6      -21.1     968.31      -36.4
17:41              52         20         25         24       18.6      -20.9     968.41      -34.9
17:42              49         21         25         24       18.6      -21.2     968.24      -35.5
17:43              46         20         25         24       18.6      -20.9     968.48      -34.9
17:44              50         20         30         24       18.6      -20.8     968.48      -34.8
17:45              43         22         26         24       18.5      -21.2     968.34      -35.7
17:46              49         17         25         25       18.5      -21.2     968.48      -34.2
17:47              31         17         24         25       18.5      -20.9     968.45      -34.1
17:48              50         20         25         25       18.5      -21.2     968.34      -35.3
17:49              52         24         25         25       18.5      -20.9     968.48      -36.0
17:50              37         22         25         25       18.5      -21.1     968.65      -35.6
17:51              42         23         25         25       18.4      -21.1     968.68      -36.1
17:52              59         23         23         25       18.4      -21.1     968.55      -36.1
17:53              57         12         28         25       18.4      -20.7     968.68      -32.0
17:54              58         24         27         25       18.4      -20.6     968.55      -35.6
17:55              57         20         24         25       18.4      -20.7     968.62      -34.6
17:56              63         18         23         24       18.4      -20.3     968.68      -33.6
17:57              60         25         25         24       18.4      -18.9     968.45      -33.5
17:58              45         21         25         23       18.4      -19.9     968.65      -33.8
17:59              64         24         24         22       18.4      -20.3     968.48      -35.1
18:00              65         17         24         22       18.4      -20.4     968.58      -33.5
18:01              61         22         25         22       18.4      -19.8     968.51      -33.8
18:02              63         18         23         21       18.5      -20.4     968.62      -33.7
18:03              60         21         23         21       18.5      -20.6     968.55      -34.7
18:04              56         17         25         21       18.5      -20.7     968.58      -33.6
18:05              66         17         23         20       18.5      -20.7     968.45      -33.9
18:06              60         20         26         20       18.5      -19.8     968.55      -33.4
18:07              56         20         24         20       18.5      -20.9     968.48      -34.9
18:08              62         18         26         20       18.5      -20.8     968.65      -34.3
18:09              62         15         24         19       18.5      -20.9     968.75      -33.3
18:10              56         25         25         19       18.5      -20.7     968.48      -35.9
18:11              49         22         25         19       18.5      -20.8     968.62      -35.2
18:12              60         25         25         19       18.5      -21.1     968.24      -36.4
18:13              53         25         29         19       18.5      -20.2     968.62      -35.2
18:14              52         20         25         19       18.5      -20.8     968.62      -34.8
18:15              61         23         27         19       18.5      -20.9     968.48      -35.8
18:16              68         11         25         19       18.5      -20.5     968.38      -31.3
18:17              60         14         23         18       18.5      -19.8     968.68      -31.5
18:18              58         22         23         18       18.5      -20.2     968.48      -34.4
18:19              63         19         24         18       18.6      -19.5     968.65      -32.8
18:20              73         82         84         18       18.6      -20.7     968.72      -43.4
18:21              75         17         82         18       18.6      -21.1     968.72      -34.0
18:22              69         24         24         18       18.6      -21.3     968.51      -36.5
18:23              59         18         27         18       18.6      -21.5     968.58      -35.2
18:24              72         19         22         18       18.6      -21.6     968.65      -35.6
18:25              72         22         22         18       18.7      -21.9     968.72      -36.7
18:26              63         19         27         17       18.7      -21.8     968.89      -35.8
18:27              72         21         25         17       18.7      -21.9     968.62      -36.4
18:28              65         22         26         17       18.7      -21.8     968.82      -36.6
18:29              69         17         22         17       18.7      -22.1     968.85      -35.6
18:30              72         20         26         17       18.6      -21.7     968.58      -35.9
18:31              70         23         24         17       18.6      -21.9     968.51      -37.2
18:32              74         20         24         17       18.6      -22.2     968.48      -36.6
18:33              63         17         25         16       18.6      -22.2     968.72      -35.5
18:34              76         21         25         16       18.6      -22.4     968.45      -37.1
18:35              66         22         25         17       18.6      -21.8     968.38      -36.6
18:36              77         21         27         17       18.6      -22.3     968.28      -36.9
18:37              78         24         25         18       18.6      -22.3     968.55      -37.8
18:38              72         26         26         18       18.5      -22.3     968.41      -38.3
18:39              60         23         26         19       18.5      -22.7     968.65      -38.2
18:40              78         21         26         19       18.4      -22.8     968.48      -37.7
18:41              69         21         25         20       18.4      -22.3     968.55      -36.9
18:42              73         24         24         20       18.4      -22.4     968.41      -38.1
18:43              72         23         25         20       18.4      -22.6     968.31      -37.8
18:44              48         24         28         20       18.4      -22.3     968.45      -37.8
18:45              80         20         24         21       18.4      -22.5     968.24      -37.0
18:46              73         22         28         21       18.3      -22.6     968.28      -37.6
18:47              69         22         25         21       18.3      -22.6     968.21      -37.6
18:48              75         20         24         21       18.3      -22.7     968.48      -37.2
18:49              83         26         33         21       18.3      -22.6     968.14      -38.7
18:50              73         24         28         21       18.3      -22.7     968.28      -38.4
18:51              74         23         25         21       18.3      -22.7     968.04      -38.0
18:52              66         25         25         22       18.2      -22.7     968.24      -38.6
18:53              70         22         26         22       18.2      -23.1     968.28      -38.3
18:54              70         25         28         22       18.2      -22.9     968.24      -39.0
18:55              71         25         28         22       18.2      -23.2     968.24      -39.3
18:56              72         29         46         22       18.1      -22.9     968.07      -39.7
18:57              70         23         29         22       18.1      -23.1     968.34      -38.5
18:58              73         24         31         22       18.1      -23.0     967.94      -38.8
18:59              53         22         27         22       18.1      -23.4     968.28      -38.7
19:00              70         27         29         22       18.0      -23.2     968.34      -39.7
19:01              68         25         32         22       18.0      -23.1     968.24      -39.1
19:02              68         23         29         22       18.0      -23.4     968.28      -39.1
19:03              71         30         50         23       18.0      -23.4     968.11      -40.7
19:04              67         24         30         23       17.9      -23.4     968.24      -39.4
19:05              72         24         30         23       17.9      -23.1     968.38      -39.0
19:06              57         30         36         23       17.9      -23.3     968.62      -40.6
19:07              69         24         32         23       17.9      -23.6     968.28      -39.6
19:08              73         24         30         23       17.9      -23.2     968.38      -39.1
19:09              68         23         30         23       18.0      -23.3     968.38      -38.8
19:10              69         23         33         23       18.0      -23.4     968.24      -39.1
19:11              61         19         30         23       18.0      -23.8     968.38      -38.5
19:12              50         30         33         23       18.0      -23.6     968.24      -41.0
19:13              73         23         30         23       18.0      -23.5     968.18      -39.3
19:14              72         28         31         24       18.0      -23.6     968.14      -40.4
19:15              77         27         28         23       17.9      -23.6     968.21      -40.2
19:16              66         87         89         24       17.9      -23.5     968.31      -48.1
19:17              72         83         89         24       17.9      -23.7     968.31      -48.0
19:18              65         23         88         24       17.9      -23.6     968.28      -39.4
19:19              74         24         31         24       17.9      -23.8     968.24      -39.9
19:20              68         23         30         24       17.9      -23.6     967.90      -39.2
19:21              73         28         30         24       17.9      -23.7     968.04      -40.6
19:22              70         26         28         24       17.9      -23.8     968.11      -40.3
19:23              75         24         28         24       17.9      -23.8     968.34      -39.9
19:24              69         25         31         24       17.9      -23.8     968.45      -40.2
19:25              74         26         29         24       17.9      -23.7     968.07      -40.2
19:26              69         24         30         24       17.9      -23.7     968.21      -39.8
19:27              80         22         30         24       17.9      -23.8     968.62      -39.3
19:28              74         25         37         24       17.9      -23.6     968.58      -39.9
19:29              78         26         26         24       17.9      -23.6     968.45      -40.0
19:30              53         20         31         24       17.9      -23.5     968.99      -38.3
19:31              78         27         27         24       17.9      -23.4     968.45      -40.0
19:32              69         23         32         24       17.9      -23.3     968.82      -38.8
19:33              81         23         28         24       17.9      -23.6     968.55      -39.2
19:34              73         25         29         24       17.9      -23.5     968.34      -39.7
19:35              56         29         30         24       17.9      -23.9     968.82      -41.0
19:36              77         21         29         24       17.9      -23.9     968.62      -39.2
19:37              73         29         29         24       17.9      -23.8     968.51      -40.9
19:38              67         23         30         24       17.9      -23.9     968.82      -39.8
19:39              76         24         25         24       17.9      -23.9     968.41      -40.1
19:40              77         26         26         24       17.9      -23.9     968.41      -40.4
19:41              77         24         26         24       17.9      -24.0     968.65      -40.2
19:42              82         25         30         24       17.9      -24.0     968.24      -40.4
19:43              74         29         38         24       17.9      -24.1     968.31      -41.3
19:44              60         24         30         24       17.9      -24.1     968.78      -40.3
19:45              75         20         29         24       17.9      -24.4     968.85      -39.6
19:46              76         23         27         24       17.9      -24.0     968.51      -39.9
19:47              73         29         29         24       17.9      -24.2     968.58      -41.4
19:48              64         23         30         24       17.9      -24.3     969.06      -40.1
19:49              82         23         27         24       17.9      -24.7     968.78      -40.6
19:50              82         20         32         24       18.0      -24.5     968.34      -39.6
19:51              75         25         32         24       18.1      -24.3     968.48      -40.8
19:52              60         23         32         24       18.1      -24.4     969.02      -40.2
19:53              67         21         29         24       18.1      -24.8     968.85      -40.3
19:54              69         24         30         24       18.1      -24.7     968.55      -41.1
19:55              72         23         33         24       18.1      -24.7     968.75      -40.8
19:56              72         28         28         24       18.0      -24.8     968.89      -42.1
19:57              77         28         30         24       18.0      -24.4     968.34      -41.6
19:58              76         18         28         24       18.0      -24.4     968.99      -39.0
19:59              71         27         32         24       18.0      -24.6     968.41      -41.6
20:00              76         23         29         24       18.0      -25.0     968.65      -41.1
20:01              76         28         30         24       18.0      -24.7     968.65      -42.0
20:02              75         25         30         24       17.9      -24.8     968.55      -41.4
20:03              85         27         30         24       17.9      -24.6     968.01      -41.6
20:04              67         24         30         24       17.9      -24.6     968.92      -40.9
20:05              77         28         31         24       17.9      -24.4     968.28      -41.6
20:06              72         29         30         24       17.9      -24.4     968.62      -41.7
20:07              78         24         29         24       17.9      -24.6     968.78      -40.9
20:08              83         23         26         24       17.9      -24.4     968.41      -40.5
20:09              78         27         27         24       17.9      -24.6     968.78      -41.6
20:10              75         30         30         24       17.9      -24.3     968.72      -41.8
20:11              78         24         30         24       17.9      -24.8     968.89      -41.2
20:12              77         30         32         24       17.9      -24.6     968.51      -42.1
20:13              86         25         30         24       17.9      -24.7     968.14      -41.4
20:14              80         19         28         24       17.8      -24.6     968.78      -39.5
20:15              77         26         30         24       17.8      -24.6     968.41      -41.4
20:16              82         25         31         24       17.8      -24.7     968.21      -41.3
20:17              82         23         30         23       17.8      -24.8     968.82      -40.8
20:18              86         24         30         23       17.8      -24.7     968.48      -41.1
20:19              81         27         27         23       17.8      -24.7     968.78      -41.7
20:20              91         33         33         23       17.8      -24.5     968.28      -42.8
20:21              81         28         33         23       17.8      -24.7     968.65      -41.9
20:22              83         24         30         23       17.8      -24.8     968.65      -41.2
20:23              84         28         34         23       17.8      -24.6     968.28      -41.8
20:24              78         30         30         23       17.7      -24.7     968.07      -42.5
20:25              72         28         31         23       17.7      -24.7     969.09      -41.9
20:26              77         26         30         23       17.7      -24.8     968.72      -41.7
20:27              78         28         31         23       17.7      -24.7     968.48      -41.9
20:28              79         30         31         23       17.7      -24.8     969.02      -42.5
20:29              79         29         32         23       17.7      -24.7     968.75      -42.1
20:30              74         27         30         23       17.8      -24.7     968.82      -41.8
20:31              79         31         32         23       17.8      -24.9     968.65      -43.1
20:32              74         28         31         23       17.8      -24.9     968.58      -42.3
20:33              77         27         35         23       17.8      -24.7     968.58      -41.8
20:34              86         28         35         23       17.7      -24.9     968.28      -42.2
20:35              70         33         33         23       17.7      -24.9     968.99      -43.3
20:36              81         28         33         23       17.7      -25.2     968.55      -42.6
20:37              66         25         33         23       17.6      -25.2     969.16      -42.0
20:38              80         31         35         23       17.6      -25.1     968.62      -43.2
20:39              78         30         33         23       17.6      -25.0     968.41      -42.8
20:40              73         28         32         23       17.6      -25.1     968.99      -42.4
20:41              70         32         35         23       17.6      -25.2     969.06      -43.5
20:42              66         31         32         23       17.6      -25.2     968.72      -43.4
20:43              71         30         32         23       17.5      -25.1     968.92      -42.9
20:44              73         61         61         23       17.5      -25.1     968.75      -47.9
20:45              76         27         61         23       17.5      -25.0     968.89      -42.2
20:46              80         31         33         23       17.4      -25.2     968.65      -43.4
20:47              73         23         33         23       17.4      -25.0     968.95      -41.3
20:48              68         31         36         23       17.4      -25.1     968.62      -43.2
20:49              73         31         37         23       17.4      -25.1     968.58      -43.3
20:50              74         29         35         23       17.4      -25.3     968.78      -42.9
20:51              68         32         33         23       17.3      -25.1     968.85      -43.4
20:52              77         24         34         23       17.3      -25.2     968.72      -41.8
20:53              72         28         33         23       17.3      -25.5     968.78      -43.0
20:54              80         30         40         23       17.3      -25.3     968.58      -43.2
20:55              74         36         36         23       17.3      -25.4     968.65      -44.6
20:56              62         24         36         23       17.3      -25.2     969.16      -41.8
20:57              73         36         36         23       17.3      -25.7     968.58      -45.1
20:58              64         37         38         23       17.2      -25.6     968.55      -45.1
20:59              67         36         40         23       17.2      -25.6     968.51      -44.9
21:00              69         32         36         23       17.2      -25.5     969.09      -44.0
21:01              66         32         35         23       17.2      -25.5     969.16      -44.0
21:02              74         36         36         23       17.2      -25.6     968.62      -44.8
21:03              72         33         42         23       17.2      -25.3     968.85      -43.9
21:04              71         33         35         23       17.2      -25.4     969.02      -44.1
21:05              72         35         36         23       17.2      -25.6     968.85      -44.6
21:06              71         30         37         23       17.3      -25.4     969.19      -43.6
21:07              79         30         36         23       17.3      -25.4     968.95      -43.4
21:08              71         35         39         23       17.3      -25.4     968.82      -44.4
21:09              82         39         41         23       17.2      -25.3     968.34      -45.1
21:10              76         30         40         23       17.2      -25.3     969.23      -43.4
21:11              75         33         35         22       17.1      -25.4     968.99      -44.1
21:12              66         37         42         23       17.1      -25.3     969.33      -44.8
21:13              63         27         37         22       17.1      -25.4     969.77      -42.8
21:14              78         34         44         22       17.1      -25.4     968.58      -44.2
21:15              62         28         38         23       17.1      -25.4     969.50      -42.9
21:16              76         36         40         23       17.0      -25.2     968.48      -44.2
21:17              70         32         38         23       17.0      -25.4     969.29      -43.9
21:18              77         35         37         22       16.9      -25.3     969.19      -44.3
21:19              87         36         42         22       16.9      -25.3     968.31      -44.4
21:20              71         37         43         22       16.9      -25.0     968.95      -44.3
21:21              66         26         37         22       16.9      -25.4     969.90      -42.6
21:22              74         31         39         22       16.9      -25.4     969.23      -43.7
21:23              75         33         38         22       16.8      -25.2     969.43      -43.8
21:24              71         30         34         22       16.8      -25.2     969.19      -43.0
21:25              78         34         36         22       16.8      -25.1     969.23      -43.8
21:26              72         31         36         22       16.8      -25.2     969.16      -43.4
21:27              66         31         34         22       16.8      -25.4     969.90      -43.7
21:28              78         37         41         22       16.7      -25.1     968.85      -44.4
21:29              76         32         37         22       16.7      -25.2     969.67      -43.6
21:30              76         38         39         22       16.7      -25.3     969.12      -44.9
21:31              73         31         38         22       16.7      -25.3     969.36      -43.5
21:32              66         26         34         22       16.7      -25.3     969.60      -42.4
21:33              88         34         41         22       16.6      -25.2     968.82      -44.0
21:34              67         32         35         22       16.7      -25.2     969.87      -43.6
21:35              70         35         35         22       16.7      -25.3     969.63      -44.3
21:36              75         29         35         22       16.8      -25.5     969.23      -43.2
21:37              75         36         36         23       16.8      -25.3     969.23      -44.4
21:38              59         27         36         22       16.8      -25.6     970.11      -42.9
21:39              74         33         40         22       16.7      -25.3     969.26      -43.9
21:40              65         32         35         22       16.7      -25.4     969.87      -43.9
21:41              77         33         37         22       16.7      -25.3     969.26      -43.9
21:42              72         27         36         22       16.6      -25.3     970.11      -42.6
21:43              71         35         35         22       16.6      -25.3     970.07      -44.3
21:44              77         35         36         22       16.6      -25.4     969.67      -44.4
21:45              78         26         38         22       16.5      -25.2     969.63      -42.2
21:46              63         33         33         22       16.5      -25.3     970.51      -43.9
21:47              80         37         41         22       16.5      -25.3     969.39      -44.8
21:48              71         30         38         22       16.5      -25.2     970.21      -43.1
21:49              69         27         33         22       16.4      -25.4     970.27      -42.7
21:50              80         31         37         22       16.4      -25.1     969.67      -43.2
21:51              78         25         36         22       16.4      -25.2     970.31      -42.0
21:52              78         30         32         22       16.4      -25.2     969.80      -43.2
21:53              73         36         36         22       16.3      -25.1     969.63      -44.2
21:54              68         30         36         22       16.3      -25.1     970.41      -43.0
21:55              78         34         36         22       16.3      -25.0     970.00      -43.7
21:56              79         32         36         22       16.3      -24.8     969.53      -43.0
21:57              69         25         39         22       16.3      -24.9     970.44      -41.6
21:58              73         27         32         22       16.3      -24.9     970.11      -42.1
21:59              74         33         40         22       16.2      -24.8     969.63      -43.2
22:00              72         29         35         23       16.2      -24.8     969.97      -42.3
22:01              80         33         34         22       16.2      -24.7     969.94      -43.0
22:02              84         34         39         22       16.2      -24.9     969.63      -43.5
22:03              74         32         34         23       16.2      -24.8     970.34      -43.1
22:04              61         25         37         23       16.2      -24.9     970.68      -41.7
22:05              82         36         36         23       16.3      -25.1     970.21      -44.2
22:06              76         32         40         23       16.3      -24.8     969.60      -43.1
22:07              80         31         34         23       16.3      -24.8     970.31      -42.9
22:08              80         34         40         22       16.3      -24.9     969.77      -43.6
22:09              63         33         37         22       16.2      -24.8     970.51      -43.2
22:10              68         30         33         22       16.2      -25.0     970.55      -42.8
22:11              54         37         43         22       16.2      -25.0     970.48      -44.3
22:12              74         29         37         22       16.2      -25.1     970.92      -42.7
22:13              84         32         32         23       16.1      -24.9     970.41      -43.2
22:14              87         27         37         23       16.1      -24.8     969.80      -41.9
22:15              74         28         33         23       16.1      -24.7     970.34      -42.0
22:16              70         30         32         23       16.1      -25.0     970.55      -42.8
22:17              81         31         33         22       16.1      -24.9     970.24      -43.0
22:18              73         22         31         22       16.0      -24.7     970.61      -40.4
22:19              72         22         33         22       16.0      -24.9     970.99      -40.7
22:20              82         34         37         23       16.0      -24.9     969.77      -43.5
22:21              74         26         39         23       16.0      -24.7     970.65      -41.5
22:22              61         19         26         23       16.0      -24.7     971.63      -39.7
22:23              88         31         34         23       16.1      -24.9     969.63      -43.0
22:24              77         28         35         23       16.1      -24.7     970.68      -42.0
22:25              49         28         32         23       16.1      -24.7     971.56      -42.0
22:26              65         25         28         23       16.1      -24.8     971.26      -41.4
22:27              88         30         32         23       16.0      -24.6     969.60      -42.1
22:28              69         28         32         22       16.0      -24.3     971.05      -41.5
22:29              82         29         31         21       16.0      -24.4     970.38      -41.8
22:30              76         23         35         21       16.1      -24.5     970.44      -40.4
22:31              65         30         32         20       16.1      -24.6     970.88      -42.2
22:32              71         29         35         20       16.2      -24.8     970.41      -42.3
22:33              69         30         33         19       16.2      -24.8     970.55      -42.5
22:34              71         29         33         19       16.2      -24.7     970.82      -42.2
22:35              69         27         31         18       16.2      -24.8     970.61      -41.9
22:36              69         32         34         18       16.2      -24.7     970.75      -42.9
22:37              67         25         32         17       16.2      -24.8     970.82      -41.4
22:38              70         26         36         17       16.1      -24.8     970.27      -41.7
22:39              62         31         35         16       16.1      -24.7     970.95      -42.7
22:40              62         25         31         16       16.1      -24.8     970.75      -41.5
22:41              73         31         33         16       16.1      -24.6     970.82      -42.6
22:42              68         30         31         16       16.1      -24.7     970.75      -42.3
22:43              58         23         36         16       16.1      -24.8     971.49      -41.0
22:44              71         29         36         15       16.1      -24.8     970.44      -42.3
22:45              73         33         34         15       16.1      -24.5     971.12      -42.8
22:46              68         25         36         15       16.0      -24.3     971.43      -40.8
22:47              74         17         25         15       16.0      -24.7     971.56      -38.7
22:48              85         25         34         15       16.0      -24.6     970.58      -41.2
22:49              84         28         30         15       16.0      -24.4     970.24      -41.6
22:50              76         29         29         15       16.0      -24.3     971.05      -41.6
22:51              63         22         32         14       16.0      -24.6     971.36      -40.2
22:52              72         26         32         14       16.0      -24.7     970.75      -41.5
22:53              65         26         36         14       16.0      -24.3     971.12      -41.1
22:54              66         30         30         14       16.0      -24.4     971.43      -42.0
22:55              65         26         30         14       16.0      -24.4     971.53      -41.1
22:56              74         24         29         14       16.0      -24.5     971.26      -40.8
22:57              75         30         32         14       16.0      -24.3     970.85      -41.8
22:58              70         24         34         14       16.1      -24.1     971.36      -40.3
22:59              71         29         30         14       16.1      -24.2     971.36      -41.4
23:00              70         21         30         14       16.2      -24.2     971.66      -39.5
23:01              74         32         32         14       16.2      -24.3     971.05      -42.3
23:02              65         31         33         14       16.2      -24.3     971.73      -42.2
23:03              66         19         33         15       16.2      -24.6     971.80      -39.5
23:04              73         20         30         15       16.1      -24.4     971.36      -39.5
23:05              89         23         28         16       16.1      -24.4     970.95      -40.2
23:06              80         23         27         17       16.1      -24.3     971.26      -40.4
23:07              75         27         30         17       16.0      -24.3     971.26      -41.3
23:08              82         21         31         17       15.9      -24.1     971.56      -39.4
23:09              82         23         30         18       15.9      -24.1     970.99      -39.8
23:10              85         25         26         18       15.9      -24.1     971.22      -40.5
23:11              86         22         27         18       15.9      -24.2     971.39      -39.7
23:12              80         25         27         18       15.8      -24.1     971.93      -40.5
23:13              74         21         25         18       15.8      -24.3     971.83      -39.6
23:14              79         26         27         19       15.8      -24.2     971.73      -40.8
23:15              85         23         28         19       15.8      -24.1     971.63      -40.0
23:16              84         23         29         19       15.8      -24.1     971.49      -40.0
23:17              74         29         31         19       15.7      -24.1     971.83      -41.3
23:18              74         28         30         19       15.7      -24.1     971.87      -41.1
23:19              78         24         28         19       15.7      -24.0     971.63      -40.2
23:20              79         26         28         20       15.7      -23.9     971.76      -40.5
23:21              79         26         27         20       15.7      -24.2     971.97      -40.9
23:22              82         23         27         20       15.7      -24.2     971.83      -40.2
23:23              87         23         27         20       15.6      -24.2     972.07      -39.9
23:24              76         24         24         20       15.6      -24.2     971.83      -40.4
23:25              84         22         27         20       15.7      -24.4     971.80      -40.0
23:26              88         21         24         20       15.7      -24.4     971.97      -39.8
23:27              85         21         26         21       15.8      -24.2     972.24      -39.5
23:28              84         22         24         21       15.8      -24.2     972.07      -39.8
23:29              81         23         29         21       15.9      -24.3     971.97      -40.2
23:30              81         27         30         21       15.9      -24.0     971.97      -40.8
23:31              76         21         27         21       15.9      -24.1     972.31      -39.3
23:32              78         26         26         21       15.9      -24.2     972.07      -40.8
23:33              77         25         29         21       15.8      -23.9     972.17      -40.2
23:34              81         23         27         21       15.8      -23.9     972.27      -39.6
23:35              86         23         24         21       15.7      -23.9     972.41      -39.6
23:36              85         21         25         21       15.7      -23.9     972.31      -39.2
23:37              86         22         22         21       15.7      -23.9     972.04      -39.3
23:38              86         23         23         21       15.7      -23.9     972.21      -39.9
23:39              79         22         23         21       15.6      -23.9     972.24      -39.3
23:40              86         19         24         21       15.6      -23.7     972.04      -38.4
23:41              80         22         24         21       15.6      -23.7     972.34      -39.1
23:42              79         23         27         21       15.6      -23.8     972.54      -39.7
23:43              76         20         26         21       15.6      -23.9     972.54      -38.9
23:44              70         25         28         22       15.6      -23.8     972.51      -40.1
23:45              76         23         30         22       15.6      -23.9     972.54      -39.6
23:46              72         23         25         22       15.6      -23.8     972.65      -39.5
23:47              72         25         27         22       15.6      -23.8     972.71      -40.2
23:48              73         24         25         22       15.6      -23.7     972.71      -39.8
23:49              75         23         28         22       15.6      -23.8     972.65      -39.7
23:50              71         25         25         22       15.6      -23.6     972.68      -39.9
23:51              73         18         26         22       15.6      -23.7     972.92      -38.1
23:52              82         19         26         22       15.6      -23.6     972.92      -38.2
23:53              80         21         25         22       15.6      -23.6     972.75      -38.7
23:54              82         20         25         22       15.6      -23.5     972.88      -38.3
23:55              78         23         24         22       15.6      -23.5     972.81      -39.3
23:56              79         19         23         21       15.7      -23.5     972.78      -38.1
23:57              83         22         22         21       15.7      -23.4     972.88      -38.7
23:58              81         19         23         20       15.8      -23.4     972.92      -37.9
23:59              75         20         23         19       15.9      -23.5     972.98      -38.3